<?xml version="1.0" encoding="UTF-8" standalone="no" ?>
<gpx xmlns="http://www.topografix.com/GPX/1/1" xmlns:xsi="http://www.w3.org/2001/XMLSchema-instance" xsi:schemaLocation="http://www.topografix.com/GPX/1/1 http://www.topografix.com/GPX/1/1/gpx.xsd" version="1.1" creator="VisuGPX - https://www.visugpx.com">
  <metadata>
    <name>Run &amp; Bike Pechabou</name>
    <desc><![CDATA[Parcours 2011 du Run & Bike de Pechabou ]]></desc>
  </metadata>
  <trk>
    <name><![CDATA[ACTIVE LOG 001]]></name>
    <trkseg>
      <trkpt lat="43.50044" lon="1.50846">
        <ele>218.356567</ele>
        <time>2011-10-15T15:35:01Z</time>
      </trkpt>
      <trkpt lat="43.50039" lon="1.50781">
        <ele>222.201782</ele>
        <time>2011-10-15T15:35:16Z</time>
      </trkpt>
      <trkpt lat="43.50019" lon="1.50726">
        <ele>225.085938</ele>
        <time>2011-10-15T15:35:31Z</time>
      </trkpt>
      <trkpt lat="43.49994" lon="1.50661">
        <ele>227.969727</ele>
        <time>2011-10-15T15:35:48Z</time>
      </trkpt>
      <trkpt lat="43.49976" lon="1.50612">
        <ele>231.334351</ele>
        <time>2011-10-15T15:36:01Z</time>
      </trkpt>
      <trkpt lat="43.49962" lon="1.50571">
        <ele>234.218384</ele>
        <time>2011-10-15T15:36:12Z</time>
      </trkpt>
      <trkpt lat="43.49962" lon="1.50531">
        <ele>237.582886</ele>
        <time>2011-10-15T15:36:22Z</time>
      </trkpt>
      <trkpt lat="43.49955" lon="1.50493">
        <ele>240.467041</ele>
        <time>2011-10-15T15:36:32Z</time>
      </trkpt>
      <trkpt lat="43.49944" lon="1.50463">
        <ele>243.831543</ele>
        <time>2011-10-15T15:36:41Z</time>
      </trkpt>
      <trkpt lat="43.49936" lon="1.50433">
        <ele>245.75415</ele>
        <time>2011-10-15T15:36:49Z</time>
      </trkpt>
      <trkpt lat="43.49912" lon="1.50407">
        <ele>248.638184</ele>
        <time>2011-10-15T15:37:02Z</time>
      </trkpt>
      <trkpt lat="43.4988" lon="1.50442">
        <ele>249.599487</ele>
        <time>2011-10-15T15:37:13Z</time>
      </trkpt>
      <trkpt lat="43.49848" lon="1.50452">
        <ele>251.041382</ele>
        <time>2011-10-15T15:37:21Z</time>
      </trkpt>
      <trkpt lat="43.49752" lon="1.50419">
        <ele>250.0802</ele>
        <time>2011-10-15T15:37:42Z</time>
      </trkpt>
      <trkpt lat="43.49627" lon="1.50336">
        <ele>251.041382</ele>
        <time>2011-10-15T15:38:08Z</time>
      </trkpt>
      <trkpt lat="43.49591" lon="1.50296">
        <ele>254.406006</ele>
        <time>2011-10-15T15:38:18Z</time>
      </trkpt>
      <trkpt lat="43.4955" lon="1.50239">
        <ele>255.848022</ele>
        <time>2011-10-15T15:38:31Z</time>
      </trkpt>
      <trkpt lat="43.49539" lon="1.50208">
        <ele>255.36731</ele>
        <time>2011-10-15T15:38:36Z</time>
      </trkpt>
      <trkpt lat="43.4953" lon="1.50086">
        <ele>251.522095</ele>
        <time>2011-10-15T15:38:49Z</time>
      </trkpt>
      <trkpt lat="43.49506" lon="1.50017">
        <ele>250.560791</ele>
        <time>2011-10-15T15:38:57Z</time>
      </trkpt>
      <trkpt lat="43.49447" lon="1.49951">
        <ele>252.002808</ele>
        <time>2011-10-15T15:39:09Z</time>
      </trkpt>
      <trkpt lat="43.49401" lon="1.49926">
        <ele>255.848022</ele>
        <time>2011-10-15T15:39:19Z</time>
      </trkpt>
      <trkpt lat="43.49384" lon="1.49923">
        <ele>256.809326</ele>
        <time>2011-10-15T15:39:23Z</time>
      </trkpt>
      <trkpt lat="43.49349" lon="1.49947">
        <ele>255.848022</ele>
        <time>2011-10-15T15:39:32Z</time>
      </trkpt>
      <trkpt lat="43.49303" lon="1.50014">
        <ele>256.809326</ele>
        <time>2011-10-15T15:39:45Z</time>
      </trkpt>
      <trkpt lat="43.49267" lon="1.50027">
        <ele>256.809326</ele>
        <time>2011-10-15T15:39:52Z</time>
      </trkpt>
      <trkpt lat="43.49156" lon="1.50013">
        <ele>260.17395</ele>
        <time>2011-10-15T15:40:15Z</time>
      </trkpt>
      <trkpt lat="43.49092" lon="1.5">
        <ele>264.019287</ele>
        <time>2011-10-15T15:40:31Z</time>
      </trkpt>
      <trkpt lat="43.4908" lon="1.5">
        <ele>265.461304</ele>
        <time>2011-10-15T15:40:34Z</time>
      </trkpt>
      <trkpt lat="43.49052" lon="1.49989">
        <ele>267.864502</ele>
        <time>2011-10-15T15:40:42Z</time>
      </trkpt>
      <trkpt lat="43.48996" lon="1.49961">
        <ele>271.229126</ele>
        <time>2011-10-15T15:40:57Z</time>
      </trkpt>
      <trkpt lat="43.48954" lon="1.49947">
        <ele>273.151855</ele>
        <time>2011-10-15T15:41:07Z</time>
      </trkpt>
      <trkpt lat="43.48941" lon="1.49938">
        <ele>275.074463</ele>
        <time>2011-10-15T15:41:11Z</time>
      </trkpt>
      <trkpt lat="43.48942" lon="1.49924">
        <ele>276.99707</ele>
        <time>2011-10-15T15:41:14Z</time>
      </trkpt>
      <trkpt lat="43.48945" lon="1.4992">
        <ele>276.516357</ele>
        <time>2011-10-15T15:41:15Z</time>
      </trkpt>
      <trkpt lat="43.4899" lon="1.4984">
        <ele>280.361694</ele>
        <time>2011-10-15T15:41:32Z</time>
      </trkpt>
      <trkpt lat="43.49015" lon="1.4979">
        <ele>282.284302</ele>
        <time>2011-10-15T15:41:41Z</time>
      </trkpt>
      <trkpt lat="43.4906" lon="1.49668">
        <ele>284.206909</ele>
        <time>2011-10-15T15:42:00Z</time>
      </trkpt>
      <trkpt lat="43.49124" lon="1.49465">
        <ele>281.803589</ele>
        <time>2011-10-15T15:42:27Z</time>
      </trkpt>
      <trkpt lat="43.49166" lon="1.49391">
        <ele>281.322998</ele>
        <time>2011-10-15T15:42:38Z</time>
      </trkpt>
      <trkpt lat="43.49251" lon="1.49291">
        <ele>278.919678</ele>
        <time>2011-10-15T15:42:56Z</time>
      </trkpt>
      <trkpt lat="43.4928" lon="1.49251">
        <ele>276.035645</ele>
        <time>2011-10-15T15:43:01Z</time>
      </trkpt>
      <trkpt lat="43.49325" lon="1.49191">
        <ele>273.151855</ele>
        <time>2011-10-15T15:43:08Z</time>
      </trkpt>
      <trkpt lat="43.49361" lon="1.49148">
        <ele>269.787109</ele>
        <time>2011-10-15T15:43:13Z</time>
      </trkpt>
      <trkpt lat="43.49407" lon="1.49091">
        <ele>266.422485</ele>
        <time>2011-10-15T15:43:19Z</time>
      </trkpt>
      <trkpt lat="43.49423" lon="1.49071">
        <ele>265.461304</ele>
        <time>2011-10-15T15:43:21Z</time>
      </trkpt>
      <trkpt lat="43.49436" lon="1.49054">
        <ele>264.980591</ele>
        <time>2011-10-15T15:43:23Z</time>
      </trkpt>
      <trkpt lat="43.4944" lon="1.49023">
        <ele>266.422485</ele>
        <time>2011-10-15T15:43:29Z</time>
      </trkpt>
      <trkpt lat="43.49405" lon="1.48999">
        <ele>269.787109</ele>
        <time>2011-10-15T15:43:38Z</time>
      </trkpt>
      <trkpt lat="43.49396" lon="1.4899">
        <ele>271.709717</ele>
        <time>2011-10-15T15:43:41Z</time>
      </trkpt>
      <trkpt lat="43.49361" lon="1.48961">
        <ele>274.59375</ele>
        <time>2011-10-15T15:43:52Z</time>
      </trkpt>
      <trkpt lat="43.49355" lon="1.48953">
        <ele>275.555054</ele>
        <time>2011-10-15T15:43:54Z</time>
      </trkpt>
      <trkpt lat="43.4935" lon="1.4893">
        <ele>274.59375</ele>
        <time>2011-10-15T15:43:58Z</time>
      </trkpt>
      <trkpt lat="43.49381" lon="1.48829">
        <ele>271.229126</ele>
        <time>2011-10-15T15:44:12Z</time>
      </trkpt>
      <trkpt lat="43.49421" lon="1.48721">
        <ele>267.383911</ele>
        <time>2011-10-15T15:44:25Z</time>
      </trkpt>
      <trkpt lat="43.49448" lon="1.48644">
        <ele>264.499878</ele>
        <time>2011-10-15T15:44:33Z</time>
      </trkpt>
      <trkpt lat="43.49471" lon="1.4858">
        <ele>261.135254</ele>
        <time>2011-10-15T15:44:39Z</time>
      </trkpt>
      <trkpt lat="43.49495" lon="1.48513">
        <ele>258.251343</ele>
        <time>2011-10-15T15:44:45Z</time>
      </trkpt>
      <trkpt lat="43.49504" lon="1.48491">
        <ele>257.770752</ele>
        <time>2011-10-15T15:44:48Z</time>
      </trkpt>
      <trkpt lat="43.49499" lon="1.48475">
        <ele>257.290039</ele>
        <time>2011-10-15T15:44:53Z</time>
      </trkpt>
      <trkpt lat="43.49467" lon="1.48453">
        <ele>256.809326</ele>
        <time>2011-10-15T15:45:03Z</time>
      </trkpt>
      <trkpt lat="43.49435" lon="1.4843">
        <ele>252.483398</ele>
        <time>2011-10-15T15:45:10Z</time>
      </trkpt>
      <trkpt lat="43.49416" lon="1.48415">
        <ele>248.638184</ele>
        <time>2011-10-15T15:45:13Z</time>
      </trkpt>
      <trkpt lat="43.49401" lon="1.48403">
        <ele>245.273438</ele>
        <time>2011-10-15T15:45:15Z</time>
      </trkpt>
      <trkpt lat="43.49386" lon="1.48391">
        <ele>240.467041</ele>
        <time>2011-10-15T15:45:17Z</time>
      </trkpt>
      <trkpt lat="43.49361" lon="1.4837">
        <ele>235.660278</ele>
        <time>2011-10-15T15:45:20Z</time>
      </trkpt>
      <trkpt lat="43.49345" lon="1.48356">
        <ele>231.334351</ele>
        <time>2011-10-15T15:45:22Z</time>
      </trkpt>
      <trkpt lat="43.49321" lon="1.48334">
        <ele>226.527832</ele>
        <time>2011-10-15T15:45:25Z</time>
      </trkpt>
      <trkpt lat="43.49298" lon="1.48312">
        <ele>221.721191</ele>
        <time>2011-10-15T15:45:28Z</time>
      </trkpt>
      <trkpt lat="43.49292" lon="1.48306">
        <ele>219.798584</ele>
        <time>2011-10-15T15:45:29Z</time>
      </trkpt>
      <trkpt lat="43.49297" lon="1.48266">
        <ele>220.759888</ele>
        <time>2011-10-15T15:45:35Z</time>
      </trkpt>
      <trkpt lat="43.49315" lon="1.48237">
        <ele>220.279175</ele>
        <time>2011-10-15T15:45:40Z</time>
      </trkpt>
      <trkpt lat="43.49326" lon="1.48219">
        <ele>220.759888</ele>
        <time>2011-10-15T15:45:43Z</time>
      </trkpt>
      <trkpt lat="43.49319" lon="1.48185">
        <ele>219.317993</ele>
        <time>2011-10-15T15:45:50Z</time>
      </trkpt>
      <trkpt lat="43.49297" lon="1.48163">
        <ele>222.682495</ele>
        <time>2011-10-15T15:45:58Z</time>
      </trkpt>
      <trkpt lat="43.49292" lon="1.48159">
        <ele>223.163208</ele>
        <time>2011-10-15T15:46:00Z</time>
      </trkpt>
      <trkpt lat="43.49276" lon="1.48143">
        <ele>226.527832</ele>
        <time>2011-10-15T15:46:07Z</time>
      </trkpt>
      <trkpt lat="43.49274" lon="1.48141">
        <ele>226.527832</ele>
        <time>2011-10-15T15:46:08Z</time>
      </trkpt>
      <trkpt lat="43.49251" lon="1.48121">
        <ele>229.892334</ele>
        <time>2011-10-15T15:46:18Z</time>
      </trkpt>
      <trkpt lat="43.49228" lon="1.48098">
        <ele>233.25708</ele>
        <time>2011-10-15T15:46:30Z</time>
      </trkpt>
      <trkpt lat="43.49205" lon="1.4807">
        <ele>236.140991</ele>
        <time>2011-10-15T15:46:43Z</time>
      </trkpt>
      <trkpt lat="43.49186" lon="1.48038">
        <ele>239.505493</ele>
        <time>2011-10-15T15:46:56Z</time>
      </trkpt>
      <trkpt lat="43.4917" lon="1.48018">
        <ele>242.389648</ele>
        <time>2011-10-15T15:47:06Z</time>
      </trkpt>
      <trkpt lat="43.49156" lon="1.48">
        <ele>245.273438</ele>
        <time>2011-10-15T15:47:15Z</time>
      </trkpt>
      <trkpt lat="43.49138" lon="1.47981">
        <ele>248.638184</ele>
        <time>2011-10-15T15:47:26Z</time>
      </trkpt>
      <trkpt lat="43.49121" lon="1.47971">
        <ele>252.002808</ele>
        <time>2011-10-15T15:47:35Z</time>
      </trkpt>
      <trkpt lat="43.49101" lon="1.47961">
        <ele>255.36731</ele>
        <time>2011-10-15T15:47:45Z</time>
      </trkpt>
      <trkpt lat="43.49087" lon="1.47955">
        <ele>258.251343</ele>
        <time>2011-10-15T15:47:53Z</time>
      </trkpt>
      <trkpt lat="43.49071" lon="1.47947">
        <ele>261.615967</ele>
        <time>2011-10-15T15:48:01Z</time>
      </trkpt>
      <trkpt lat="43.49056" lon="1.47941">
        <ele>264.980591</ele>
        <time>2011-10-15T15:48:09Z</time>
      </trkpt>
      <trkpt lat="43.4904" lon="1.47934">
        <ele>267.864502</ele>
        <time>2011-10-15T15:48:17Z</time>
      </trkpt>
      <trkpt lat="43.49023" lon="1.47926">
        <ele>270.748413</ele>
        <time>2011-10-15T15:48:26Z</time>
      </trkpt>
      <trkpt lat="43.49027" lon="1.47895">
        <ele>270.748413</ele>
        <time>2011-10-15T15:48:35Z</time>
      </trkpt>
      <trkpt lat="43.4903" lon="1.4788">
        <ele>269.787109</ele>
        <time>2011-10-15T15:48:38Z</time>
      </trkpt>
      <trkpt lat="43.4905" lon="1.47782">
        <ele>266.422485</ele>
        <time>2011-10-15T15:48:52Z</time>
      </trkpt>
      <trkpt lat="43.49052" lon="1.47774">
        <ele>265.461304</ele>
        <time>2011-10-15T15:48:53Z</time>
      </trkpt>
      <trkpt lat="43.49043" lon="1.47749">
        <ele>263.538574</ele>
        <time>2011-10-15T15:48:57Z</time>
      </trkpt>
      <trkpt lat="43.49017" lon="1.47729">
        <ele>258.731934</ele>
        <time>2011-10-15T15:49:01Z</time>
      </trkpt>
      <trkpt lat="43.49001" lon="1.47717">
        <ele>255.36731</ele>
        <time>2011-10-15T15:49:03Z</time>
      </trkpt>
      <trkpt lat="43.48983" lon="1.47702">
        <ele>251.522095</ele>
        <time>2011-10-15T15:49:05Z</time>
      </trkpt>
      <trkpt lat="43.48954" lon="1.47679">
        <ele>247.676758</ele>
        <time>2011-10-15T15:49:08Z</time>
      </trkpt>
      <trkpt lat="43.48936" lon="1.47664">
        <ele>250.560791</ele>
        <time>2011-10-15T15:49:11Z</time>
      </trkpt>
      <trkpt lat="43.48937" lon="1.47659">
        <ele>250.560791</ele>
        <time>2011-10-15T15:49:12Z</time>
      </trkpt>
      <trkpt lat="43.48952" lon="1.47605">
        <ele>247.676758</ele>
        <time>2011-10-15T15:49:19Z</time>
      </trkpt>
      <trkpt lat="43.48956" lon="1.4756">
        <ele>243.831543</ele>
        <time>2011-10-15T15:49:23Z</time>
      </trkpt>
      <trkpt lat="43.48958" lon="1.47536">
        <ele>242.870239</ele>
        <time>2011-10-15T15:49:25Z</time>
      </trkpt>
      <trkpt lat="43.48968" lon="1.47489">
        <ele>240.947632</ele>
        <time>2011-10-15T15:49:29Z</time>
      </trkpt>
      <trkpt lat="43.48971" lon="1.47477">
        <ele>240.467041</ele>
        <time>2011-10-15T15:49:30Z</time>
      </trkpt>
      <trkpt lat="43.48975" lon="1.47453">
        <ele>239.505493</ele>
        <time>2011-10-15T15:49:32Z</time>
      </trkpt>
      <trkpt lat="43.48978" lon="1.47432">
        <ele>239.986206</ele>
        <time>2011-10-15T15:49:34Z</time>
      </trkpt>
      <trkpt lat="43.48997" lon="1.4739">
        <ele>236.621704</ele>
        <time>2011-10-15T15:49:39Z</time>
      </trkpt>
      <trkpt lat="43.49007" lon="1.4737">
        <ele>234.699097</ele>
        <time>2011-10-15T15:49:41Z</time>
      </trkpt>
      <trkpt lat="43.49039" lon="1.47325">
        <ele>230.85376</ele>
        <time>2011-10-15T15:49:46Z</time>
      </trkpt>
      <trkpt lat="43.49086" lon="1.47307">
        <ele>229.892334</ele>
        <time>2011-10-15T15:49:52Z</time>
      </trkpt>
      <trkpt lat="43.49134" lon="1.47284">
        <ele>232.776489</ele>
        <time>2011-10-15T15:49:59Z</time>
      </trkpt>
      <trkpt lat="43.49163" lon="1.47244">
        <ele>230.373047</ele>
        <time>2011-10-15T15:50:06Z</time>
      </trkpt>
      <trkpt lat="43.49192" lon="1.472">
        <ele>228.931152</ele>
        <time>2011-10-15T15:50:12Z</time>
      </trkpt>
      <trkpt lat="43.49225" lon="1.47159">
        <ele>227.008545</ele>
        <time>2011-10-15T15:50:18Z</time>
      </trkpt>
      <trkpt lat="43.49265" lon="1.47105">
        <ele>224.605225</ele>
        <time>2011-10-15T15:50:25Z</time>
      </trkpt>
      <trkpt lat="43.49293" lon="1.47071">
        <ele>223.643799</ele>
        <time>2011-10-15T15:50:30Z</time>
      </trkpt>
      <trkpt lat="43.49315" lon="1.4705">
        <ele>224.605225</ele>
        <time>2011-10-15T15:50:34Z</time>
      </trkpt>
      <trkpt lat="43.49333" lon="1.47022">
        <ele>222.201782</ele>
        <time>2011-10-15T15:50:38Z</time>
      </trkpt>
      <trkpt lat="43.49345" lon="1.4701">
        <ele>221.721191</ele>
        <time>2011-10-15T15:50:40Z</time>
      </trkpt>
      <trkpt lat="43.49375" lon="1.4698">
        <ele>220.759888</ele>
        <time>2011-10-15T15:50:45Z</time>
      </trkpt>
      <trkpt lat="43.49464" lon="1.46874">
        <ele>217.395386</ele>
        <time>2011-10-15T15:51:02Z</time>
      </trkpt>
      <trkpt lat="43.49502" lon="1.46835">
        <ele>214.03064</ele>
        <time>2011-10-15T15:51:08Z</time>
      </trkpt>
      <trkpt lat="43.49527" lon="1.46804">
        <ele>212.588623</ele>
        <time>2011-10-15T15:51:12Z</time>
      </trkpt>
      <trkpt lat="43.49568" lon="1.46757">
        <ele>209.224121</ele>
        <time>2011-10-15T15:51:18Z</time>
      </trkpt>
      <trkpt lat="43.49574" lon="1.4675">
        <ele>209.224121</ele>
        <time>2011-10-15T15:51:19Z</time>
      </trkpt>
      <trkpt lat="43.4963" lon="1.46702">
        <ele>206.820679</ele>
        <time>2011-10-15T15:51:27Z</time>
      </trkpt>
      <trkpt lat="43.49653" lon="1.46688">
        <ele>205.378784</ele>
        <time>2011-10-15T15:51:30Z</time>
      </trkpt>
      <trkpt lat="43.4967" lon="1.46684">
        <ele>203.93689</ele>
        <time>2011-10-15T15:51:32Z</time>
      </trkpt>
      <trkpt lat="43.497" lon="1.46658">
        <ele>201.052856</ele>
        <time>2011-10-15T15:51:36Z</time>
      </trkpt>
      <trkpt lat="43.49735" lon="1.46617">
        <ele>198.168945</ele>
        <time>2011-10-15T15:51:41Z</time>
      </trkpt>
      <trkpt lat="43.49765" lon="1.4659">
        <ele>196.726929</ele>
        <time>2011-10-15T15:51:45Z</time>
      </trkpt>
      <trkpt lat="43.4979" lon="1.46559">
        <ele>194.804321</ele>
        <time>2011-10-15T15:51:49Z</time>
      </trkpt>
      <trkpt lat="43.49811" lon="1.46545">
        <ele>194.804321</ele>
        <time>2011-10-15T15:51:52Z</time>
      </trkpt>
      <trkpt lat="43.49828" lon="1.46517">
        <ele>193.843018</ele>
        <time>2011-10-15T15:51:56Z</time>
      </trkpt>
      <trkpt lat="43.49855" lon="1.46509">
        <ele>195.765625</ele>
        <time>2011-10-15T15:52:01Z</time>
      </trkpt>
      <trkpt lat="43.49864" lon="1.46507">
        <ele>196.246338</ele>
        <time>2011-10-15T15:52:03Z</time>
      </trkpt>
      <trkpt lat="43.49907" lon="1.46498">
        <ele>199.130127</ele>
        <time>2011-10-15T15:52:14Z</time>
      </trkpt>
      <trkpt lat="43.4992" lon="1.46497">
        <ele>200.572266</ele>
        <time>2011-10-15T15:52:18Z</time>
      </trkpt>
      <trkpt lat="43.49936" lon="1.46494">
        <ele>203.456177</ele>
        <time>2011-10-15T15:52:24Z</time>
      </trkpt>
      <trkpt lat="43.49944" lon="1.46493">
        <ele>204.898071</ele>
        <time>2011-10-15T15:52:27Z</time>
      </trkpt>
      <trkpt lat="43.49955" lon="1.46491">
        <ele>206.340088</ele>
        <time>2011-10-15T15:52:31Z</time>
      </trkpt>
      <trkpt lat="43.49972" lon="1.46488">
        <ele>209.704834</ele>
        <time>2011-10-15T15:52:38Z</time>
      </trkpt>
      <trkpt lat="43.49991" lon="1.46486">
        <ele>213.069336</ele>
        <time>2011-10-15T15:52:48Z</time>
      </trkpt>
      <trkpt lat="43.50009" lon="1.46485">
        <ele>216.43396</ele>
        <time>2011-10-15T15:52:57Z</time>
      </trkpt>
      <trkpt lat="43.50012" lon="1.46485">
        <ele>217.395386</ele>
        <time>2011-10-15T15:52:59Z</time>
      </trkpt>
      <trkpt lat="43.50026" lon="1.46487">
        <ele>220.279175</ele>
        <time>2011-10-15T15:53:07Z</time>
      </trkpt>
      <trkpt lat="43.50045" lon="1.46493">
        <ele>223.643799</ele>
        <time>2011-10-15T15:53:17Z</time>
      </trkpt>
      <trkpt lat="43.50063" lon="1.46497">
        <ele>227.008545</ele>
        <time>2011-10-15T15:53:26Z</time>
      </trkpt>
      <trkpt lat="43.50087" lon="1.46499">
        <ele>227.489136</ele>
        <time>2011-10-15T15:53:37Z</time>
      </trkpt>
      <trkpt lat="43.50091" lon="1.46485">
        <ele>227.008545</ele>
        <time>2011-10-15T15:53:41Z</time>
      </trkpt>
      <trkpt lat="43.50093" lon="1.46432">
        <ele>224.605225</ele>
        <time>2011-10-15T15:53:50Z</time>
      </trkpt>
      <trkpt lat="43.50101" lon="1.46376">
        <ele>221.240601</ele>
        <time>2011-10-15T15:53:56Z</time>
      </trkpt>
      <trkpt lat="43.50107" lon="1.46335">
        <ele>218.356567</ele>
        <time>2011-10-15T15:54:00Z</time>
      </trkpt>
      <trkpt lat="43.50116" lon="1.46275">
        <ele>214.51123</ele>
        <time>2011-10-15T15:54:05Z</time>
      </trkpt>
      <trkpt lat="43.50116" lon="1.4622">
        <ele>211.146729</ele>
        <time>2011-10-15T15:54:09Z</time>
      </trkpt>
      <trkpt lat="43.50114" lon="1.46161">
        <ele>207.782104</ele>
        <time>2011-10-15T15:54:13Z</time>
      </trkpt>
      <trkpt lat="43.50112" lon="1.46131">
        <ele>205.859497</ele>
        <time>2011-10-15T15:54:15Z</time>
      </trkpt>
      <trkpt lat="43.50093" lon="1.46082">
        <ele>202.494873</ele>
        <time>2011-10-15T15:54:19Z</time>
      </trkpt>
      <trkpt lat="43.50078" lon="1.46062">
        <ele>200.091675</ele>
        <time>2011-10-15T15:54:21Z</time>
      </trkpt>
      <trkpt lat="43.50052" lon="1.46034">
        <ele>195.284912</ele>
        <time>2011-10-15T15:54:24Z</time>
      </trkpt>
      <trkpt lat="43.50026" lon="1.46008">
        <ele>191.439575</ele>
        <time>2011-10-15T15:54:27Z</time>
      </trkpt>
      <trkpt lat="43.50007" lon="1.45972">
        <ele>188.555786</ele>
        <time>2011-10-15T15:54:31Z</time>
      </trkpt>
      <trkpt lat="43.49996" lon="1.45912">
        <ele>186.152466</ele>
        <time>2011-10-15T15:54:37Z</time>
      </trkpt>
      <trkpt lat="43.49993" lon="1.45903">
        <ele>186.633179</ele>
        <time>2011-10-15T15:54:38Z</time>
      </trkpt>
      <trkpt lat="43.49975" lon="1.45881">
        <ele>186.633179</ele>
        <time>2011-10-15T15:54:42Z</time>
      </trkpt>
      <trkpt lat="43.49964" lon="1.45876">
        <ele>187.11377</ele>
        <time>2011-10-15T15:54:44Z</time>
      </trkpt>
      <trkpt lat="43.49963" lon="1.45829">
        <ele>186.633179</ele>
        <time>2011-10-15T15:54:51Z</time>
      </trkpt>
      <trkpt lat="43.4997" lon="1.45818">
        <ele>186.633179</ele>
        <time>2011-10-15T15:54:53Z</time>
      </trkpt>
      <trkpt lat="43.49963" lon="1.45735">
        <ele>185.671753</ele>
        <time>2011-10-15T15:55:04Z</time>
      </trkpt>
      <trkpt lat="43.49946" lon="1.4558">
        <ele>185.191162</ele>
        <time>2011-10-15T15:55:23Z</time>
      </trkpt>
      <trkpt lat="43.49957" lon="1.45554">
        <ele>186.152466</ele>
        <time>2011-10-15T15:55:29Z</time>
      </trkpt>
      <trkpt lat="43.49966" lon="1.45554">
        <ele>186.152466</ele>
        <time>2011-10-15T15:55:31Z</time>
      </trkpt>
      <trkpt lat="43.49977" lon="1.45552">
        <ele>186.152466</ele>
        <time>2011-10-15T15:55:33Z</time>
      </trkpt>
      <trkpt lat="43.50009" lon="1.45518">
        <ele>187.11377</ele>
        <time>2011-10-15T15:55:41Z</time>
      </trkpt>
      <trkpt lat="43.50065" lon="1.45346">
        <ele>185.191162</ele>
        <time>2011-10-15T15:56:02Z</time>
      </trkpt>
      <trkpt lat="43.50095" lon="1.4525">
        <ele>183.268433</ele>
        <time>2011-10-15T15:56:14Z</time>
      </trkpt>
      <trkpt lat="43.50104" lon="1.45246">
        <ele>183.749023</ele>
        <time>2011-10-15T15:56:18Z</time>
      </trkpt>
      <trkpt lat="43.50127" lon="1.45277">
        <ele>185.191162</ele>
        <time>2011-10-15T15:56:28Z</time>
      </trkpt>
      <trkpt lat="43.50172" lon="1.45289">
        <ele>188.075073</ele>
        <time>2011-10-15T15:56:41Z</time>
      </trkpt>
      <trkpt lat="43.50175" lon="1.45289">
        <ele>188.555786</ele>
        <time>2011-10-15T15:56:42Z</time>
      </trkpt>
      <trkpt lat="43.50181" lon="1.45284">
        <ele>189.516968</ele>
        <time>2011-10-15T15:56:45Z</time>
      </trkpt>
      <trkpt lat="43.50189" lon="1.45278">
        <ele>191.920288</ele>
        <time>2011-10-15T15:56:48Z</time>
      </trkpt>
      <trkpt lat="43.50199" lon="1.45263">
        <ele>196.246338</ele>
        <time>2011-10-15T15:56:54Z</time>
      </trkpt>
      <trkpt lat="43.50206" lon="1.45253">
        <ele>199.130127</ele>
        <time>2011-10-15T15:56:59Z</time>
      </trkpt>
      <trkpt lat="43.50208" lon="1.45245">
        <ele>202.494873</ele>
        <time>2011-10-15T15:57:05Z</time>
      </trkpt>
      <trkpt lat="43.5021" lon="1.45241">
        <ele>202.975464</ele>
        <time>2011-10-15T15:57:06Z</time>
      </trkpt>
      <trkpt lat="43.50217" lon="1.45232">
        <ele>205.378784</ele>
        <time>2011-10-15T15:57:11Z</time>
      </trkpt>
      <trkpt lat="43.50233" lon="1.45225">
        <ele>208.743408</ele>
        <time>2011-10-15T15:57:20Z</time>
      </trkpt>
      <trkpt lat="43.50251" lon="1.45226">
        <ele>211.627441</ele>
        <time>2011-10-15T15:57:30Z</time>
      </trkpt>
      <trkpt lat="43.50282" lon="1.45239">
        <ele>214.51123</ele>
        <time>2011-10-15T15:57:43Z</time>
      </trkpt>
      <trkpt lat="43.50306" lon="1.45245">
        <ele>217.875977</ele>
        <time>2011-10-15T15:57:54Z</time>
      </trkpt>
      <trkpt lat="43.50335" lon="1.45225">
        <ele>220.279175</ele>
        <time>2011-10-15T15:58:07Z</time>
      </trkpt>
      <trkpt lat="43.5035" lon="1.45216">
        <ele>219.798584</ele>
        <time>2011-10-15T15:58:12Z</time>
      </trkpt>
      <trkpt lat="43.50368" lon="1.4523">
        <ele>218.83728</ele>
        <time>2011-10-15T15:58:17Z</time>
      </trkpt>
      <trkpt lat="43.50385" lon="1.45248">
        <ele>218.83728</ele>
        <time>2011-10-15T15:58:22Z</time>
      </trkpt>
      <trkpt lat="43.50448" lon="1.4527">
        <ele>218.356567</ele>
        <time>2011-10-15T15:58:36Z</time>
      </trkpt>
      <trkpt lat="43.50459" lon="1.45271">
        <ele>217.875977</ele>
        <time>2011-10-15T15:58:38Z</time>
      </trkpt>
      <trkpt lat="43.50471" lon="1.45271">
        <ele>216.43396</ele>
        <time>2011-10-15T15:58:40Z</time>
      </trkpt>
      <trkpt lat="43.50505" lon="1.45256">
        <ele>212.588623</ele>
        <time>2011-10-15T15:58:45Z</time>
      </trkpt>
      <trkpt lat="43.50511" lon="1.45274">
        <ele>209.224121</ele>
        <time>2011-10-15T15:58:50Z</time>
      </trkpt>
      <trkpt lat="43.50508" lon="1.45286">
        <ele>208.262817</ele>
        <time>2011-10-15T15:58:52Z</time>
      </trkpt>
      <trkpt lat="43.50528" lon="1.45293">
        <ele>208.743408</ele>
        <time>2011-10-15T15:58:59Z</time>
      </trkpt>
      <trkpt lat="43.5055" lon="1.45285">
        <ele>211.627441</ele>
        <time>2011-10-15T15:59:07Z</time>
      </trkpt>
      <trkpt lat="43.50575" lon="1.45267">
        <ele>214.991943</ele>
        <time>2011-10-15T15:59:18Z</time>
      </trkpt>
      <trkpt lat="43.50608" lon="1.45253">
        <ele>217.875977</ele>
        <time>2011-10-15T15:59:31Z</time>
      </trkpt>
      <trkpt lat="43.5062" lon="1.45257">
        <ele>220.759888</ele>
        <time>2011-10-15T15:59:38Z</time>
      </trkpt>
      <trkpt lat="43.50622" lon="1.45266">
        <ele>222.682495</ele>
        <time>2011-10-15T15:59:42Z</time>
      </trkpt>
      <trkpt lat="43.5062" lon="1.45275">
        <ele>225.085938</ele>
        <time>2011-10-15T15:59:46Z</time>
      </trkpt>
      <trkpt lat="43.5062" lon="1.45282">
        <ele>226.527832</ele>
        <time>2011-10-15T15:59:49Z</time>
      </trkpt>
      <trkpt lat="43.50614" lon="1.45302">
        <ele>229.411743</ele>
        <time>2011-10-15T15:59:56Z</time>
      </trkpt>
      <trkpt lat="43.50606" lon="1.4532">
        <ele>228.931152</ele>
        <time>2011-10-15T16:00:01Z</time>
      </trkpt>
      <trkpt lat="43.50611" lon="1.45347">
        <ele>229.892334</ele>
        <time>2011-10-15T16:00:08Z</time>
      </trkpt>
      <trkpt lat="43.50634" lon="1.45367">
        <ele>233.737671</ele>
        <time>2011-10-15T16:00:20Z</time>
      </trkpt>
      <trkpt lat="43.50649" lon="1.45363">
        <ele>236.621704</ele>
        <time>2011-10-15T16:00:28Z</time>
      </trkpt>
      <trkpt lat="43.50679" lon="1.45366">
        <ele>239.505493</ele>
        <time>2011-10-15T16:00:40Z</time>
      </trkpt>
      <trkpt lat="43.50702" lon="1.45388">
        <ele>236.621704</ele>
        <time>2011-10-15T16:00:48Z</time>
      </trkpt>
      <trkpt lat="43.50718" lon="1.45403">
        <ele>234.218384</ele>
        <time>2011-10-15T16:00:51Z</time>
      </trkpt>
      <trkpt lat="43.50733" lon="1.45424">
        <ele>230.85376</ele>
        <time>2011-10-15T16:00:54Z</time>
      </trkpt>
      <trkpt lat="43.50784" lon="1.45447">
        <ele>232.776489</ele>
        <time>2011-10-15T16:01:03Z</time>
      </trkpt>
      <trkpt lat="43.50807" lon="1.45457">
        <ele>236.140991</ele>
        <time>2011-10-15T16:01:10Z</time>
      </trkpt>
      <trkpt lat="43.50818" lon="1.45459">
        <ele>239.024902</ele>
        <time>2011-10-15T16:01:16Z</time>
      </trkpt>
      <trkpt lat="43.50823" lon="1.45461">
        <ele>240.467041</ele>
        <time>2011-10-15T16:01:19Z</time>
      </trkpt>
      <trkpt lat="43.50839" lon="1.45474">
        <ele>243.831543</ele>
        <time>2011-10-15T16:01:29Z</time>
      </trkpt>
      <trkpt lat="43.50844" lon="1.45503">
        <ele>246.715454</ele>
        <time>2011-10-15T16:01:41Z</time>
      </trkpt>
      <trkpt lat="43.50839" lon="1.45551">
        <ele>250.0802</ele>
        <time>2011-10-15T16:01:57Z</time>
      </trkpt>
      <trkpt lat="43.50834" lon="1.45597">
        <ele>253.444702</ele>
        <time>2011-10-15T16:02:12Z</time>
      </trkpt>
      <trkpt lat="43.50857" lon="1.45629">
        <ele>253.925415</ele>
        <time>2011-10-15T16:02:24Z</time>
      </trkpt>
      <trkpt lat="43.50865" lon="1.45632">
        <ele>253.444702</ele>
        <time>2011-10-15T16:02:26Z</time>
      </trkpt>
      <trkpt lat="43.50885" lon="1.45642">
        <ele>251.041382</ele>
        <time>2011-10-15T16:02:30Z</time>
      </trkpt>
      <trkpt lat="43.50913" lon="1.45655">
        <ele>247.196045</ele>
        <time>2011-10-15T16:02:34Z</time>
      </trkpt>
      <trkpt lat="43.50937" lon="1.45668">
        <ele>244.792847</ele>
        <time>2011-10-15T16:02:37Z</time>
      </trkpt>
      <trkpt lat="43.50946" lon="1.45671">
        <ele>244.792847</ele>
        <time>2011-10-15T16:02:38Z</time>
      </trkpt>
      <trkpt lat="43.50983" lon="1.4567">
        <ele>246.715454</ele>
        <time>2011-10-15T16:02:44Z</time>
      </trkpt>
      <trkpt lat="43.50994" lon="1.45663">
        <ele>246.715454</ele>
        <time>2011-10-15T16:02:47Z</time>
      </trkpt>
      <trkpt lat="43.5101" lon="1.45645">
        <ele>244.792847</ele>
        <time>2011-10-15T16:02:51Z</time>
      </trkpt>
      <trkpt lat="43.51015" lon="1.45633">
        <ele>243.831543</ele>
        <time>2011-10-15T16:02:53Z</time>
      </trkpt>
      <trkpt lat="43.51014" lon="1.45619">
        <ele>242.870239</ele>
        <time>2011-10-15T16:02:56Z</time>
      </trkpt>
      <trkpt lat="43.51014" lon="1.45608">
        <ele>241.908936</ele>
        <time>2011-10-15T16:02:58Z</time>
      </trkpt>
      <trkpt lat="43.51003" lon="1.45601">
        <ele>240.467041</ele>
        <time>2011-10-15T16:03:02Z</time>
      </trkpt>
      <trkpt lat="43.50998" lon="1.45585">
        <ele>238.544312</ele>
        <time>2011-10-15T16:03:06Z</time>
      </trkpt>
      <trkpt lat="43.50991" lon="1.45575">
        <ele>237.102295</ele>
        <time>2011-10-15T16:03:08Z</time>
      </trkpt>
      <trkpt lat="43.50993" lon="1.4556">
        <ele>236.140991</ele>
        <time>2011-10-15T16:03:10Z</time>
      </trkpt>
      <trkpt lat="43.51006" lon="1.45549">
        <ele>234.699097</ele>
        <time>2011-10-15T16:03:12Z</time>
      </trkpt>
      <trkpt lat="43.51023" lon="1.45526">
        <ele>232.776489</ele>
        <time>2011-10-15T16:03:16Z</time>
      </trkpt>
      <trkpt lat="43.51032" lon="1.4551">
        <ele>231.814941</ele>
        <time>2011-10-15T16:03:18Z</time>
      </trkpt>
      <trkpt lat="43.51058" lon="1.45469">
        <ele>227.969727</ele>
        <time>2011-10-15T16:03:23Z</time>
      </trkpt>
      <trkpt lat="43.51063" lon="1.45461">
        <ele>227.489136</ele>
        <time>2011-10-15T16:03:24Z</time>
      </trkpt>
      <trkpt lat="43.51076" lon="1.45449">
        <ele>226.047119</ele>
        <time>2011-10-15T16:03:26Z</time>
      </trkpt>
      <trkpt lat="43.51081" lon="1.45445">
        <ele>225.566528</ele>
        <time>2011-10-15T16:03:27Z</time>
      </trkpt>
      <trkpt lat="43.51108" lon="1.45426">
        <ele>223.643799</ele>
        <time>2011-10-15T16:03:32Z</time>
      </trkpt>
      <trkpt lat="43.51129" lon="1.45387">
        <ele>218.83728</ele>
        <time>2011-10-15T16:03:37Z</time>
      </trkpt>
      <trkpt lat="43.51144" lon="1.4537">
        <ele>217.395386</ele>
        <time>2011-10-15T16:03:39Z</time>
      </trkpt>
      <trkpt lat="43.51159" lon="1.45353">
        <ele>213.550049</ele>
        <time>2011-10-15T16:03:41Z</time>
      </trkpt>
      <trkpt lat="43.51183" lon="1.45322">
        <ele>209.224121</ele>
        <time>2011-10-15T16:03:44Z</time>
      </trkpt>
      <trkpt lat="43.51201" lon="1.45303">
        <ele>206.340088</ele>
        <time>2011-10-15T16:03:46Z</time>
      </trkpt>
      <trkpt lat="43.51232" lon="1.4527">
        <ele>202.975464</ele>
        <time>2011-10-15T16:03:50Z</time>
      </trkpt>
      <trkpt lat="43.5124" lon="1.45262">
        <ele>202.975464</ele>
        <time>2011-10-15T16:03:51Z</time>
      </trkpt>
      <trkpt lat="43.51255" lon="1.45252">
        <ele>202.975464</ele>
        <time>2011-10-15T16:03:53Z</time>
      </trkpt>
      <trkpt lat="43.51284" lon="1.4524">
        <ele>202.975464</ele>
        <time>2011-10-15T16:03:58Z</time>
      </trkpt>
      <trkpt lat="43.5128" lon="1.45211">
        <ele>202.014282</ele>
        <time>2011-10-15T16:04:03Z</time>
      </trkpt>
      <trkpt lat="43.51277" lon="1.45197">
        <ele>201.052856</ele>
        <time>2011-10-15T16:04:05Z</time>
      </trkpt>
      <trkpt lat="43.51274" lon="1.45171">
        <ele>200.091675</ele>
        <time>2011-10-15T16:04:08Z</time>
      </trkpt>
      <trkpt lat="43.51278" lon="1.45148">
        <ele>200.091675</ele>
        <time>2011-10-15T16:04:11Z</time>
      </trkpt>
      <trkpt lat="43.51287" lon="1.4513">
        <ele>200.091675</ele>
        <time>2011-10-15T16:04:14Z</time>
      </trkpt>
      <trkpt lat="43.51286" lon="1.45087">
        <ele>198.168945</ele>
        <time>2011-10-15T16:04:19Z</time>
      </trkpt>
      <trkpt lat="43.51285" lon="1.45077">
        <ele>197.20752</ele>
        <time>2011-10-15T16:04:20Z</time>
      </trkpt>
      <trkpt lat="43.51296" lon="1.4505">
        <ele>196.726929</ele>
        <time>2011-10-15T16:04:24Z</time>
      </trkpt>
      <trkpt lat="43.51302" lon="1.45006">
        <ele>196.246338</ele>
        <time>2011-10-15T16:04:30Z</time>
      </trkpt>
      <trkpt lat="43.51312" lon="1.44917">
        <ele>194.32373</ele>
        <time>2011-10-15T16:04:41Z</time>
      </trkpt>
      <trkpt lat="43.5132" lon="1.44869">
        <ele>193.843018</ele>
        <time>2011-10-15T16:04:47Z</time>
      </trkpt>
      <trkpt lat="43.51319" lon="1.44845">
        <ele>194.32373</ele>
        <time>2011-10-15T16:04:50Z</time>
      </trkpt>
      <trkpt lat="43.51317" lon="1.44812">
        <ele>193.843018</ele>
        <time>2011-10-15T16:04:54Z</time>
      </trkpt>
      <trkpt lat="43.51332" lon="1.44758">
        <ele>191.920288</ele>
        <time>2011-10-15T16:05:02Z</time>
      </trkpt>
      <trkpt lat="43.51344" lon="1.44713">
        <ele>190.958984</ele>
        <time>2011-10-15T16:05:07Z</time>
      </trkpt>
      <trkpt lat="43.5135" lon="1.44689">
        <ele>190.958984</ele>
        <time>2011-10-15T16:05:10Z</time>
      </trkpt>
      <trkpt lat="43.51355" lon="1.44639">
        <ele>189.997681</ele>
        <time>2011-10-15T16:05:16Z</time>
      </trkpt>
      <trkpt lat="43.51365" lon="1.44605">
        <ele>188.555786</ele>
        <time>2011-10-15T16:05:20Z</time>
      </trkpt>
      <trkpt lat="43.51368" lon="1.44586">
        <ele>188.075073</ele>
        <time>2011-10-15T16:05:22Z</time>
      </trkpt>
      <trkpt lat="43.5137" lon="1.44548">
        <ele>187.11377</ele>
        <time>2011-10-15T16:05:26Z</time>
      </trkpt>
      <trkpt lat="43.51379" lon="1.44524">
        <ele>187.11377</ele>
        <time>2011-10-15T16:05:29Z</time>
      </trkpt>
      <trkpt lat="43.51378" lon="1.44498">
        <ele>186.152466</ele>
        <time>2011-10-15T16:05:32Z</time>
      </trkpt>
      <trkpt lat="43.51383" lon="1.44466">
        <ele>185.671753</ele>
        <time>2011-10-15T16:05:36Z</time>
      </trkpt>
      <trkpt lat="43.51385" lon="1.44452">
        <ele>185.191162</ele>
        <time>2011-10-15T16:05:38Z</time>
      </trkpt>
      <trkpt lat="43.51391" lon="1.44426">
        <ele>184.710571</ele>
        <time>2011-10-15T16:05:41Z</time>
      </trkpt>
      <trkpt lat="43.51375" lon="1.44389">
        <ele>185.191162</ele>
        <time>2011-10-15T16:05:47Z</time>
      </trkpt>
      <trkpt lat="43.51371" lon="1.44388">
        <ele>185.671753</ele>
        <time>2011-10-15T16:05:48Z</time>
      </trkpt>
      <trkpt lat="43.51344" lon="1.44391">
        <ele>188.075073</ele>
        <time>2011-10-15T16:05:57Z</time>
      </trkpt>
      <trkpt lat="43.51341" lon="1.44401">
        <ele>189.516968</ele>
        <time>2011-10-15T16:06:01Z</time>
      </trkpt>
      <trkpt lat="43.51344" lon="1.44405">
        <ele>190.958984</ele>
        <time>2011-10-15T16:06:03Z</time>
      </trkpt>
      <trkpt lat="43.51349" lon="1.44411">
        <ele>192.401123</ele>
        <time>2011-10-15T16:06:06Z</time>
      </trkpt>
      <trkpt lat="43.51355" lon="1.44427">
        <ele>196.246338</ele>
        <time>2011-10-15T16:06:13Z</time>
      </trkpt>
      <trkpt lat="43.51355" lon="1.44432">
        <ele>197.20752</ele>
        <time>2011-10-15T16:06:15Z</time>
      </trkpt>
      <trkpt lat="43.51345" lon="1.44452">
        <ele>200.091675</ele>
        <time>2011-10-15T16:06:26Z</time>
      </trkpt>
      <trkpt lat="43.51344" lon="1.44453">
        <ele>200.572266</ele>
        <time>2011-10-15T16:06:27Z</time>
      </trkpt>
      <trkpt lat="43.51341" lon="1.44457">
        <ele>201.052856</ele>
        <time>2011-10-15T16:06:29Z</time>
      </trkpt>
      <trkpt lat="43.51336" lon="1.44462">
        <ele>202.014282</ele>
        <time>2011-10-15T16:06:32Z</time>
      </trkpt>
      <trkpt lat="43.51312" lon="1.44469">
        <ele>204.898071</ele>
        <time>2011-10-15T16:06:45Z</time>
      </trkpt>
      <trkpt lat="43.5131" lon="1.44471">
        <ele>205.378784</ele>
        <time>2011-10-15T16:06:46Z</time>
      </trkpt>
      <trkpt lat="43.51296" lon="1.44503">
        <ele>208.743408</ele>
        <time>2011-10-15T16:06:57Z</time>
      </trkpt>
      <trkpt lat="43.51283" lon="1.44549">
        <ele>211.146729</ele>
        <time>2011-10-15T16:07:10Z</time>
      </trkpt>
      <trkpt lat="43.51272" lon="1.44595">
        <ele>214.51123</ele>
        <time>2011-10-15T16:07:23Z</time>
      </trkpt>
      <trkpt lat="43.51258" lon="1.44656">
        <ele>217.395386</ele>
        <time>2011-10-15T16:07:42Z</time>
      </trkpt>
      <trkpt lat="43.51244" lon="1.44721">
        <ele>217.875977</ele>
        <time>2011-10-15T16:07:59Z</time>
      </trkpt>
      <trkpt lat="43.51226" lon="1.44795">
        <ele>217.395386</ele>
        <time>2011-10-15T16:08:12Z</time>
      </trkpt>
      <trkpt lat="43.51213" lon="1.44852">
        <ele>220.279175</ele>
        <time>2011-10-15T16:08:26Z</time>
      </trkpt>
      <trkpt lat="43.5121" lon="1.44864">
        <ele>220.759888</ele>
        <time>2011-10-15T16:08:28Z</time>
      </trkpt>
      <trkpt lat="43.51205" lon="1.44879">
        <ele>221.240601</ele>
        <time>2011-10-15T16:08:36Z</time>
      </trkpt>
      <trkpt lat="43.51199" lon="1.44914">
        <ele>222.201782</ele>
        <time>2011-10-15T16:08:47Z</time>
      </trkpt>
      <trkpt lat="43.51193" lon="1.44923">
        <ele>222.201782</ele>
        <time>2011-10-15T16:08:50Z</time>
      </trkpt>
      <trkpt lat="43.51183" lon="1.44924">
        <ele>223.643799</ele>
        <time>2011-10-15T16:08:54Z</time>
      </trkpt>
      <trkpt lat="43.51177" lon="1.44921">
        <ele>224.605225</ele>
        <time>2011-10-15T16:08:57Z</time>
      </trkpt>
      <trkpt lat="43.51161" lon="1.44915">
        <ele>227.008545</ele>
        <time>2011-10-15T16:09:03Z</time>
      </trkpt>
      <trkpt lat="43.51122" lon="1.44899">
        <ele>230.373047</ele>
        <time>2011-10-15T16:09:17Z</time>
      </trkpt>
      <trkpt lat="43.511" lon="1.4489">
        <ele>233.25708</ele>
        <time>2011-10-15T16:09:25Z</time>
      </trkpt>
      <trkpt lat="43.51076" lon="1.44881">
        <ele>236.621704</ele>
        <time>2011-10-15T16:09:34Z</time>
      </trkpt>
      <trkpt lat="43.51053" lon="1.44873">
        <ele>239.986206</ele>
        <time>2011-10-15T16:09:43Z</time>
      </trkpt>
      <trkpt lat="43.51051" lon="1.44872">
        <ele>239.986206</ele>
        <time>2011-10-15T16:09:44Z</time>
      </trkpt>
      <trkpt lat="43.5102" lon="1.4486">
        <ele>243.35083</ele>
        <time>2011-10-15T16:09:55Z</time>
      </trkpt>
      <trkpt lat="43.50984" lon="1.44853">
        <ele>246.715454</ele>
        <time>2011-10-15T16:10:07Z</time>
      </trkpt>
      <trkpt lat="43.50936" lon="1.44846">
        <ele>248.157593</ele>
        <time>2011-10-15T16:10:22Z</time>
      </trkpt>
      <trkpt lat="43.50916" lon="1.44872">
        <ele>248.157593</ele>
        <time>2011-10-15T16:10:30Z</time>
      </trkpt>
      <trkpt lat="43.50903" lon="1.44937">
        <ele>250.560791</ele>
        <time>2011-10-15T16:10:43Z</time>
      </trkpt>
      <trkpt lat="43.50874" lon="1.45052">
        <ele>253.925415</ele>
        <time>2011-10-15T16:11:06Z</time>
      </trkpt>
      <trkpt lat="43.50854" lon="1.45105">
        <ele>253.925415</ele>
        <time>2011-10-15T16:11:19Z</time>
      </trkpt>
      <trkpt lat="43.50849" lon="1.45134">
        <ele>255.36731</ele>
        <time>2011-10-15T16:11:24Z</time>
      </trkpt>
      <trkpt lat="43.5085" lon="1.45157">
        <ele>255.848022</ele>
        <time>2011-10-15T16:11:28Z</time>
      </trkpt>
      <trkpt lat="43.50871" lon="1.45221">
        <ele>255.848022</ele>
        <time>2011-10-15T16:11:39Z</time>
      </trkpt>
      <trkpt lat="43.50881" lon="1.45295">
        <ele>252.963989</ele>
        <time>2011-10-15T16:11:48Z</time>
      </trkpt>
      <trkpt lat="43.50867" lon="1.45333">
        <ele>251.041382</ele>
        <time>2011-10-15T16:11:55Z</time>
      </trkpt>
      <trkpt lat="43.50863" lon="1.45329">
        <ele>251.041382</ele>
        <time>2011-10-15T16:11:56Z</time>
      </trkpt>
      <trkpt lat="43.50849" lon="1.45317">
        <ele>250.560791</ele>
        <time>2011-10-15T16:11:59Z</time>
      </trkpt>
      <trkpt lat="43.50803" lon="1.45301">
        <ele>247.676758</ele>
        <time>2011-10-15T16:12:07Z</time>
      </trkpt>
      <trkpt lat="43.5077" lon="1.45297">
        <ele>247.676758</ele>
        <time>2011-10-15T16:12:12Z</time>
      </trkpt>
      <trkpt lat="43.50741" lon="1.45259">
        <ele>246.234863</ele>
        <time>2011-10-15T16:12:19Z</time>
      </trkpt>
      <trkpt lat="43.50741" lon="1.4525">
        <ele>245.75415</ele>
        <time>2011-10-15T16:12:20Z</time>
      </trkpt>
      <trkpt lat="43.50739" lon="1.45196">
        <ele>242.389648</ele>
        <time>2011-10-15T16:12:25Z</time>
      </trkpt>
      <trkpt lat="43.50736" lon="1.45147">
        <ele>239.505493</ele>
        <time>2011-10-15T16:12:29Z</time>
      </trkpt>
      <trkpt lat="43.50732" lon="1.45121">
        <ele>237.582886</ele>
        <time>2011-10-15T16:12:31Z</time>
      </trkpt>
      <trkpt lat="43.50687" lon="1.45061">
        <ele>235.660278</ele>
        <time>2011-10-15T16:12:38Z</time>
      </trkpt>
      <trkpt lat="43.50679" lon="1.45058">
        <ele>235.660278</ele>
        <time>2011-10-15T16:12:39Z</time>
      </trkpt>
      <trkpt lat="43.50601" lon="1.45028">
        <ele>232.295776</ele>
        <time>2011-10-15T16:12:50Z</time>
      </trkpt>
      <trkpt lat="43.50586" lon="1.45022">
        <ele>231.814941</ele>
        <time>2011-10-15T16:12:52Z</time>
      </trkpt>
      <trkpt lat="43.5058" lon="1.45019">
        <ele>231.334351</ele>
        <time>2011-10-15T16:12:53Z</time>
      </trkpt>
      <trkpt lat="43.50568" lon="1.45011">
        <ele>231.814941</ele>
        <time>2011-10-15T16:13:00Z</time>
      </trkpt>
      <trkpt lat="43.50569" lon="1.45008">
        <ele>231.814941</ele>
        <time>2011-10-15T16:13:01Z</time>
      </trkpt>
      <trkpt lat="43.50574" lon="1.44991">
        <ele>233.25708</ele>
        <time>2011-10-15T16:13:05Z</time>
      </trkpt>
      <trkpt lat="43.50582" lon="1.44947">
        <ele>236.621704</ele>
        <time>2011-10-15T16:13:14Z</time>
      </trkpt>
      <trkpt lat="43.50587" lon="1.4491">
        <ele>238.544312</ele>
        <time>2011-10-15T16:13:22Z</time>
      </trkpt>
      <trkpt lat="43.50571" lon="1.44897">
        <ele>238.063599</ele>
        <time>2011-10-15T16:13:27Z</time>
      </trkpt>
      <trkpt lat="43.50539" lon="1.44882">
        <ele>239.024902</ele>
        <time>2011-10-15T16:13:34Z</time>
      </trkpt>
      <trkpt lat="43.50523" lon="1.44893">
        <ele>238.544312</ele>
        <time>2011-10-15T16:13:39Z</time>
      </trkpt>
      <trkpt lat="43.50489" lon="1.45015">
        <ele>238.063599</ele>
        <time>2011-10-15T16:13:58Z</time>
      </trkpt>
      <trkpt lat="43.50483" lon="1.45038">
        <ele>239.024902</ele>
        <time>2011-10-15T16:14:06Z</time>
      </trkpt>
      <trkpt lat="43.50476" lon="1.45066">
        <ele>237.582886</ele>
        <time>2011-10-15T16:14:14Z</time>
      </trkpt>
      <trkpt lat="43.5047" lon="1.45086">
        <ele>237.102295</ele>
        <time>2011-10-15T16:14:17Z</time>
      </trkpt>
      <trkpt lat="43.5046" lon="1.45114">
        <ele>236.621704</ele>
        <time>2011-10-15T16:14:21Z</time>
      </trkpt>
      <trkpt lat="43.50443" lon="1.45127">
        <ele>236.621704</ele>
        <time>2011-10-15T16:14:25Z</time>
      </trkpt>
      <trkpt lat="43.5043" lon="1.45125">
        <ele>237.102295</ele>
        <time>2011-10-15T16:14:28Z</time>
      </trkpt>
      <trkpt lat="43.50406" lon="1.45118">
        <ele>236.621704</ele>
        <time>2011-10-15T16:14:34Z</time>
      </trkpt>
      <trkpt lat="43.5037" lon="1.45113">
        <ele>233.25708</ele>
        <time>2011-10-15T16:14:40Z</time>
      </trkpt>
      <trkpt lat="43.50354" lon="1.45111">
        <ele>232.776489</ele>
        <time>2011-10-15T16:14:42Z</time>
      </trkpt>
      <trkpt lat="43.50332" lon="1.45107">
        <ele>232.776489</ele>
        <time>2011-10-15T16:14:45Z</time>
      </trkpt>
      <trkpt lat="43.50319" lon="1.45107">
        <ele>233.25708</ele>
        <time>2011-10-15T16:14:47Z</time>
      </trkpt>
      <trkpt lat="43.50312" lon="1.45099">
        <ele>233.737671</ele>
        <time>2011-10-15T16:14:49Z</time>
      </trkpt>
      <trkpt lat="43.50303" lon="1.45088">
        <ele>233.737671</ele>
        <time>2011-10-15T16:14:52Z</time>
      </trkpt>
      <trkpt lat="43.50277" lon="1.45079">
        <ele>228.931152</ele>
        <time>2011-10-15T16:14:57Z</time>
      </trkpt>
      <trkpt lat="43.50254" lon="1.45062">
        <ele>223.643799</ele>
        <time>2011-10-15T16:15:00Z</time>
      </trkpt>
      <trkpt lat="43.50238" lon="1.45049">
        <ele>218.83728</ele>
        <time>2011-10-15T16:15:02Z</time>
      </trkpt>
      <trkpt lat="43.50231" lon="1.45044">
        <ele>216.914673</ele>
        <time>2011-10-15T16:15:03Z</time>
      </trkpt>
      <trkpt lat="43.50212" lon="1.45023">
        <ele>211.627441</ele>
        <time>2011-10-15T16:15:06Z</time>
      </trkpt>
      <trkpt lat="43.50208" lon="1.45015">
        <ele>210.666016</ele>
        <time>2011-10-15T16:15:07Z</time>
      </trkpt>
      <trkpt lat="43.5019" lon="1.45005">
        <ele>204.41748</ele>
        <time>2011-10-15T16:15:10Z</time>
      </trkpt>
      <trkpt lat="43.50183" lon="1.45009">
        <ele>202.494873</ele>
        <time>2011-10-15T16:15:11Z</time>
      </trkpt>
      <trkpt lat="43.50165" lon="1.45021">
        <ele>197.20752</ele>
        <time>2011-10-15T16:15:14Z</time>
      </trkpt>
      <trkpt lat="43.50147" lon="1.45044">
        <ele>192.401123</ele>
        <time>2011-10-15T16:15:17Z</time>
      </trkpt>
      <trkpt lat="43.50141" lon="1.45051">
        <ele>190.478394</ele>
        <time>2011-10-15T16:15:18Z</time>
      </trkpt>
      <trkpt lat="43.50119" lon="1.45078">
        <ele>184.710571</ele>
        <time>2011-10-15T16:15:22Z</time>
      </trkpt>
      <trkpt lat="43.50099" lon="1.45098">
        <ele>180.384521</ele>
        <time>2011-10-15T16:15:25Z</time>
      </trkpt>
      <trkpt lat="43.50094" lon="1.45102">
        <ele>180.384521</ele>
        <time>2011-10-15T16:15:26Z</time>
      </trkpt>
      <trkpt lat="43.50091" lon="1.45109">
        <ele>179.903809</ele>
        <time>2011-10-15T16:15:27Z</time>
      </trkpt>
      <trkpt lat="43.50091" lon="1.45138">
        <ele>180.384521</ele>
        <time>2011-10-15T16:15:32Z</time>
      </trkpt>
      <trkpt lat="43.50096" lon="1.45217">
        <ele>180.384521</ele>
        <time>2011-10-15T16:15:43Z</time>
      </trkpt>
      <trkpt lat="43.50096" lon="1.45238">
        <ele>180.865234</ele>
        <time>2011-10-15T16:15:46Z</time>
      </trkpt>
      <trkpt lat="43.50091" lon="1.45265">
        <ele>181.345825</ele>
        <time>2011-10-15T16:15:50Z</time>
      </trkpt>
      <trkpt lat="43.5005" lon="1.45391">
        <ele>183.268433</ele>
        <time>2011-10-15T16:16:08Z</time>
      </trkpt>
      <trkpt lat="43.50006" lon="1.45529">
        <ele>185.671753</ele>
        <time>2011-10-15T16:16:28Z</time>
      </trkpt>
      <trkpt lat="43.49985" lon="1.45548">
        <ele>184.710571</ele>
        <time>2011-10-15T16:16:34Z</time>
      </trkpt>
      <trkpt lat="43.4997" lon="1.45553">
        <ele>183.749023</ele>
        <time>2011-10-15T16:16:37Z</time>
      </trkpt>
      <trkpt lat="43.49959" lon="1.45555">
        <ele>183.749023</ele>
        <time>2011-10-15T16:16:39Z</time>
      </trkpt>
      <trkpt lat="43.49946" lon="1.45584">
        <ele>182.307129</ele>
        <time>2011-10-15T16:16:44Z</time>
      </trkpt>
      <trkpt lat="43.49962" lon="1.4572">
        <ele>182.787842</ele>
        <time>2011-10-15T16:17:01Z</time>
      </trkpt>
      <trkpt lat="43.49972" lon="1.45814">
        <ele>183.749023</ele>
        <time>2011-10-15T16:17:14Z</time>
      </trkpt>
      <trkpt lat="43.49958" lon="1.45856">
        <ele>184.229858</ele>
        <time>2011-10-15T16:17:21Z</time>
      </trkpt>
      <trkpt lat="43.49971" lon="1.45884">
        <ele>184.229858</ele>
        <time>2011-10-15T16:17:27Z</time>
      </trkpt>
      <trkpt lat="43.49981" lon="1.45888">
        <ele>184.710571</ele>
        <time>2011-10-15T16:17:29Z</time>
      </trkpt>
      <trkpt lat="43.49996" lon="1.45915">
        <ele>184.710571</ele>
        <time>2011-10-15T16:17:34Z</time>
      </trkpt>
      <trkpt lat="43.50014" lon="1.4599">
        <ele>188.075073</ele>
        <time>2011-10-15T16:17:48Z</time>
      </trkpt>
      <trkpt lat="43.5003" lon="1.46016">
        <ele>191.439575</ele>
        <time>2011-10-15T16:17:57Z</time>
      </trkpt>
      <trkpt lat="43.5005" lon="1.46037">
        <ele>194.32373</ele>
        <time>2011-10-15T16:18:06Z</time>
      </trkpt>
      <trkpt lat="43.50068" lon="1.46055">
        <ele>197.688232</ele>
        <time>2011-10-15T16:18:14Z</time>
      </trkpt>
      <trkpt lat="43.50098" lon="1.46088">
        <ele>201.052856</ele>
        <time>2011-10-15T16:18:27Z</time>
      </trkpt>
      <trkpt lat="43.50115" lon="1.46146">
        <ele>203.456177</ele>
        <time>2011-10-15T16:18:42Z</time>
      </trkpt>
      <trkpt lat="43.50117" lon="1.46194">
        <ele>206.340088</ele>
        <time>2011-10-15T16:18:54Z</time>
      </trkpt>
      <trkpt lat="43.50117" lon="1.46251">
        <ele>209.704834</ele>
        <time>2011-10-15T16:19:10Z</time>
      </trkpt>
      <trkpt lat="43.50112" lon="1.46304">
        <ele>212.588623</ele>
        <time>2011-10-15T16:19:25Z</time>
      </trkpt>
      <trkpt lat="43.50103" lon="1.46347">
        <ele>215.472656</ele>
        <time>2011-10-15T16:19:37Z</time>
      </trkpt>
      <trkpt lat="43.50096" lon="1.46385">
        <ele>218.83728</ele>
        <time>2011-10-15T16:19:47Z</time>
      </trkpt>
      <trkpt lat="43.50095" lon="1.46389">
        <ele>218.83728</ele>
        <time>2011-10-15T16:19:48Z</time>
      </trkpt>
      <trkpt lat="43.50091" lon="1.46422">
        <ele>220.759888</ele>
        <time>2011-10-15T16:19:56Z</time>
      </trkpt>
      <trkpt lat="43.50091" lon="1.46494">
        <ele>223.643799</ele>
        <time>2011-10-15T16:20:12Z</time>
      </trkpt>
      <trkpt lat="43.501" lon="1.46572">
        <ele>226.527832</ele>
        <time>2011-10-15T16:20:30Z</time>
      </trkpt>
      <trkpt lat="43.50115" lon="1.46605">
        <ele>229.892334</ele>
        <time>2011-10-15T16:20:39Z</time>
      </trkpt>
      <trkpt lat="43.50135" lon="1.46674">
        <ele>232.776489</ele>
        <time>2011-10-15T16:20:57Z</time>
      </trkpt>
      <trkpt lat="43.50119" lon="1.46751">
        <ele>232.776489</ele>
        <time>2011-10-15T16:21:13Z</time>
      </trkpt>
      <trkpt lat="43.50118" lon="1.46765">
        <ele>232.776489</ele>
        <time>2011-10-15T16:21:15Z</time>
      </trkpt>
      <trkpt lat="43.50127" lon="1.46812">
        <ele>231.334351</ele>
        <time>2011-10-15T16:21:21Z</time>
      </trkpt>
      <trkpt lat="43.50139" lon="1.46841">
        <ele>229.892334</ele>
        <time>2011-10-15T16:21:25Z</time>
      </trkpt>
      <trkpt lat="43.50192" lon="1.46913">
        <ele>231.334351</ele>
        <time>2011-10-15T16:21:39Z</time>
      </trkpt>
      <trkpt lat="43.5022" lon="1.46951">
        <ele>232.295776</ele>
        <time>2011-10-15T16:21:47Z</time>
      </trkpt>
      <trkpt lat="43.50254" lon="1.4704">
        <ele>229.411743</ele>
        <time>2011-10-15T16:22:01Z</time>
      </trkpt>
      <trkpt lat="43.50302" lon="1.47126">
        <ele>232.295776</ele>
        <time>2011-10-15T16:22:18Z</time>
      </trkpt>
      <trkpt lat="43.503" lon="1.4718">
        <ele>234.699097</ele>
        <time>2011-10-15T16:22:30Z</time>
      </trkpt>
      <trkpt lat="43.5029" lon="1.47226">
        <ele>237.582886</ele>
        <time>2011-10-15T16:22:41Z</time>
      </trkpt>
      <trkpt lat="43.50287" lon="1.47278">
        <ele>241.428223</ele>
        <time>2011-10-15T16:22:53Z</time>
      </trkpt>
      <trkpt lat="43.50315" lon="1.47306">
        <ele>244.312256</ele>
        <time>2011-10-15T16:23:04Z</time>
      </trkpt>
      <trkpt lat="43.5037" lon="1.47356">
        <ele>241.908936</ele>
        <time>2011-10-15T16:23:19Z</time>
      </trkpt>
      <trkpt lat="43.50435" lon="1.47416">
        <ele>244.792847</ele>
        <time>2011-10-15T16:23:35Z</time>
      </trkpt>
      <trkpt lat="43.50454" lon="1.47432">
        <ele>247.676758</ele>
        <time>2011-10-15T16:23:41Z</time>
      </trkpt>
      <trkpt lat="43.50468" lon="1.47444">
        <ele>250.0802</ele>
        <time>2011-10-15T16:23:45Z</time>
      </trkpt>
      <trkpt lat="43.50486" lon="1.47478">
        <ele>250.560791</ele>
        <time>2011-10-15T16:23:55Z</time>
      </trkpt>
      <trkpt lat="43.50478" lon="1.47532">
        <ele>253.444702</ele>
        <time>2011-10-15T16:24:08Z</time>
      </trkpt>
      <trkpt lat="43.50453" lon="1.47588">
        <ele>256.809326</ele>
        <time>2011-10-15T16:24:24Z</time>
      </trkpt>
      <trkpt lat="43.5044" lon="1.47619">
        <ele>257.290039</ele>
        <time>2011-10-15T16:24:32Z</time>
      </trkpt>
      <trkpt lat="43.50452" lon="1.47631">
        <ele>257.770752</ele>
        <time>2011-10-15T16:24:37Z</time>
      </trkpt>
      <trkpt lat="43.50545" lon="1.47655">
        <ele>257.770752</ele>
        <time>2011-10-15T16:24:57Z</time>
      </trkpt>
      <trkpt lat="43.50596" lon="1.47668">
        <ele>261.615967</ele>
        <time>2011-10-15T16:25:10Z</time>
      </trkpt>
      <trkpt lat="43.50626" lon="1.47676">
        <ele>264.499878</ele>
        <time>2011-10-15T16:25:18Z</time>
      </trkpt>
      <trkpt lat="43.50662" lon="1.47688">
        <ele>267.864502</ele>
        <time>2011-10-15T16:25:28Z</time>
      </trkpt>
      <trkpt lat="43.50713" lon="1.47701">
        <ele>270.748413</ele>
        <time>2011-10-15T16:25:40Z</time>
      </trkpt>
      <trkpt lat="43.50722" lon="1.47704">
        <ele>271.229126</ele>
        <time>2011-10-15T16:25:42Z</time>
      </trkpt>
      <trkpt lat="43.50726" lon="1.47732">
        <ele>270.2677</ele>
        <time>2011-10-15T16:25:49Z</time>
      </trkpt>
      <trkpt lat="43.50665" lon="1.47802">
        <ele>267.383911</ele>
        <time>2011-10-15T16:26:03Z</time>
      </trkpt>
      <trkpt lat="43.50602" lon="1.47868">
        <ele>266.422485</ele>
        <time>2011-10-15T16:26:15Z</time>
      </trkpt>
      <trkpt lat="43.50497" lon="1.47987">
        <ele>269.306519</ele>
        <time>2011-10-15T16:26:37Z</time>
      </trkpt>
      <trkpt lat="43.50463" lon="1.48046">
        <ele>270.2677</ele>
        <time>2011-10-15T16:26:46Z</time>
      </trkpt>
      <trkpt lat="43.50429" lon="1.48152">
        <ele>269.787109</ele>
        <time>2011-10-15T16:27:00Z</time>
      </trkpt>
      <trkpt lat="43.50395" lon="1.4822">
        <ele>272.671143</ele>
        <time>2011-10-15T16:27:11Z</time>
      </trkpt>
      <trkpt lat="43.50376" lon="1.4826">
        <ele>273.151855</ele>
        <time>2011-10-15T16:27:17Z</time>
      </trkpt>
      <trkpt lat="43.50333" lon="1.48385">
        <ele>273.151855</ele>
        <time>2011-10-15T16:27:34Z</time>
      </trkpt>
      <trkpt lat="43.5031" lon="1.48461">
        <ele>269.787109</ele>
        <time>2011-10-15T16:27:44Z</time>
      </trkpt>
      <trkpt lat="43.50308" lon="1.4847">
        <ele>269.306519</ele>
        <time>2011-10-15T16:27:45Z</time>
      </trkpt>
      <trkpt lat="43.50291" lon="1.48526">
        <ele>267.383911</ele>
        <time>2011-10-15T16:27:53Z</time>
      </trkpt>
      <trkpt lat="43.50291" lon="1.48549">
        <ele>268.825806</ele>
        <time>2011-10-15T16:27:57Z</time>
      </trkpt>
      <trkpt lat="43.50292" lon="1.48597">
        <ele>264.980591</ele>
        <time>2011-10-15T16:28:03Z</time>
      </trkpt>
      <trkpt lat="43.50292" lon="1.48632">
        <ele>263.538574</ele>
        <time>2011-10-15T16:28:06Z</time>
      </trkpt>
      <trkpt lat="43.50292" lon="1.48658">
        <ele>259.212646</ele>
        <time>2011-10-15T16:28:08Z</time>
      </trkpt>
      <trkpt lat="43.50292" lon="1.48672">
        <ele>255.848022</ele>
        <time>2011-10-15T16:28:09Z</time>
      </trkpt>
      <trkpt lat="43.50292" lon="1.48715">
        <ele>253.925415</ele>
        <time>2011-10-15T16:28:12Z</time>
      </trkpt>
      <trkpt lat="43.50317" lon="1.48754">
        <ele>252.963989</ele>
        <time>2011-10-15T16:28:18Z</time>
      </trkpt>
      <trkpt lat="43.50332" lon="1.48767">
        <ele>250.0802</ele>
        <time>2011-10-15T16:28:20Z</time>
      </trkpt>
      <trkpt lat="43.50349" lon="1.48781">
        <ele>248.638184</ele>
        <time>2011-10-15T16:28:22Z</time>
      </trkpt>
      <trkpt lat="43.50371" lon="1.48794">
        <ele>246.715454</ele>
        <time>2011-10-15T16:28:25Z</time>
      </trkpt>
      <trkpt lat="43.50377" lon="1.48801">
        <ele>246.715454</ele>
        <time>2011-10-15T16:28:26Z</time>
      </trkpt>
      <trkpt lat="43.50386" lon="1.48828">
        <ele>241.428223</ele>
        <time>2011-10-15T16:28:29Z</time>
      </trkpt>
      <trkpt lat="43.50397" lon="1.48835">
        <ele>240.467041</ele>
        <time>2011-10-15T16:28:30Z</time>
      </trkpt>
      <trkpt lat="43.50417" lon="1.48845">
        <ele>237.102295</ele>
        <time>2011-10-15T16:28:32Z</time>
      </trkpt>
      <trkpt lat="43.50442" lon="1.48857">
        <ele>233.25708</ele>
        <time>2011-10-15T16:28:35Z</time>
      </trkpt>
      <trkpt lat="43.50471" lon="1.48858">
        <ele>227.969727</ele>
        <time>2011-10-15T16:28:38Z</time>
      </trkpt>
      <trkpt lat="43.5049" lon="1.48856">
        <ele>225.085938</ele>
        <time>2011-10-15T16:28:40Z</time>
      </trkpt>
      <trkpt lat="43.50515" lon="1.48873">
        <ele>222.201782</ele>
        <time>2011-10-15T16:28:44Z</time>
      </trkpt>
      <trkpt lat="43.50526" lon="1.48893">
        <ele>219.798584</ele>
        <time>2011-10-15T16:28:46Z</time>
      </trkpt>
      <trkpt lat="43.50536" lon="1.48914">
        <ele>216.914673</ele>
        <time>2011-10-15T16:28:48Z</time>
      </trkpt>
      <trkpt lat="43.50552" lon="1.48948">
        <ele>214.991943</ele>
        <time>2011-10-15T16:28:51Z</time>
      </trkpt>
      <trkpt lat="43.50578" lon="1.48972">
        <ele>212.108032</ele>
        <time>2011-10-15T16:28:55Z</time>
      </trkpt>
      <trkpt lat="43.50593" lon="1.48976">
        <ele>210.666016</ele>
        <time>2011-10-15T16:28:57Z</time>
      </trkpt>
      <trkpt lat="43.50623" lon="1.49002">
        <ele>211.146729</ele>
        <time>2011-10-15T16:29:01Z</time>
      </trkpt>
      <trkpt lat="43.50636" lon="1.49018">
        <ele>211.627441</ele>
        <time>2011-10-15T16:29:03Z</time>
      </trkpt>
      <trkpt lat="43.50645" lon="1.49028">
        <ele>212.108032</ele>
        <time>2011-10-15T16:29:04Z</time>
      </trkpt>
      <trkpt lat="43.50679" lon="1.49103">
        <ele>211.627441</ele>
        <time>2011-10-15T16:29:11Z</time>
      </trkpt>
      <trkpt lat="43.50711" lon="1.49149">
        <ele>211.627441</ele>
        <time>2011-10-15T16:29:16Z</time>
      </trkpt>
      <trkpt lat="43.5073" lon="1.4918">
        <ele>212.108032</ele>
        <time>2011-10-15T16:29:20Z</time>
      </trkpt>
      <trkpt lat="43.50768" lon="1.49261">
        <ele>214.03064</ele>
        <time>2011-10-15T16:29:32Z</time>
      </trkpt>
      <trkpt lat="43.50771" lon="1.49268">
        <ele>213.550049</ele>
        <time>2011-10-15T16:29:33Z</time>
      </trkpt>
      <trkpt lat="43.50796" lon="1.4929">
        <ele>208.743408</ele>
        <time>2011-10-15T16:29:37Z</time>
      </trkpt>
      <trkpt lat="43.50805" lon="1.49293">
        <ele>207.301392</ele>
        <time>2011-10-15T16:29:38Z</time>
      </trkpt>
      <trkpt lat="43.50852" lon="1.4928">
        <ele>202.014282</ele>
        <time>2011-10-15T16:29:44Z</time>
      </trkpt>
      <trkpt lat="43.50856" lon="1.49274">
        <ele>201.533569</ele>
        <time>2011-10-15T16:29:45Z</time>
      </trkpt>
      <trkpt lat="43.50868" lon="1.49299">
        <ele>196.246338</ele>
        <time>2011-10-15T16:29:50Z</time>
      </trkpt>
      <trkpt lat="43.50864" lon="1.49318">
        <ele>193.843018</ele>
        <time>2011-10-15T16:29:52Z</time>
      </trkpt>
      <trkpt lat="43.50863" lon="1.49355">
        <ele>187.11377</ele>
        <time>2011-10-15T16:29:57Z</time>
      </trkpt>
      <trkpt lat="43.50868" lon="1.4936">
        <ele>185.191162</ele>
        <time>2011-10-15T16:29:59Z</time>
      </trkpt>
      <trkpt lat="43.50862" lon="1.49377">
        <ele>181.345825</ele>
        <time>2011-10-15T16:30:02Z</time>
      </trkpt>
      <trkpt lat="43.5085" lon="1.49405">
        <ele>177.50061</ele>
        <time>2011-10-15T16:30:05Z</time>
      </trkpt>
      <trkpt lat="43.50834" lon="1.49417">
        <ele>176.539307</ele>
        <time>2011-10-15T16:30:07Z</time>
      </trkpt>
      <trkpt lat="43.50816" lon="1.49425">
        <ele>177.02002</ele>
        <time>2011-10-15T16:30:10Z</time>
      </trkpt>
      <trkpt lat="43.50816" lon="1.49438">
        <ele>177.981201</ele>
        <time>2011-10-15T16:30:14Z</time>
      </trkpt>
      <trkpt lat="43.50785" lon="1.4944">
        <ele>178.461914</ele>
        <time>2011-10-15T16:30:23Z</time>
      </trkpt>
      <trkpt lat="43.50736" lon="1.49429">
        <ele>181.826416</ele>
        <time>2011-10-15T16:30:35Z</time>
      </trkpt>
      <trkpt lat="43.50725" lon="1.49424">
        <ele>182.307129</ele>
        <time>2011-10-15T16:30:38Z</time>
      </trkpt>
      <trkpt lat="43.50707" lon="1.49411">
        <ele>183.268433</ele>
        <time>2011-10-15T16:30:44Z</time>
      </trkpt>
      <trkpt lat="43.50683" lon="1.49392">
        <ele>182.307129</ele>
        <time>2011-10-15T16:30:50Z</time>
      </trkpt>
      <trkpt lat="43.50672" lon="1.49386">
        <ele>182.307129</ele>
        <time>2011-10-15T16:30:52Z</time>
      </trkpt>
      <trkpt lat="43.50648" lon="1.49383">
        <ele>181.345825</ele>
        <time>2011-10-15T16:30:56Z</time>
      </trkpt>
      <trkpt lat="43.50618" lon="1.49389">
        <ele>180.384521</ele>
        <time>2011-10-15T16:31:01Z</time>
      </trkpt>
      <trkpt lat="43.5059" lon="1.49398">
        <ele>179.903809</ele>
        <time>2011-10-15T16:31:06Z</time>
      </trkpt>
      <trkpt lat="43.50578" lon="1.49399">
        <ele>179.423218</ele>
        <time>2011-10-15T16:31:08Z</time>
      </trkpt>
      <trkpt lat="43.50557" lon="1.49397">
        <ele>180.384521</ele>
        <time>2011-10-15T16:31:12Z</time>
      </trkpt>
      <trkpt lat="43.50519" lon="1.49382">
        <ele>183.749023</ele>
        <time>2011-10-15T16:31:21Z</time>
      </trkpt>
      <trkpt lat="43.50491" lon="1.4937">
        <ele>187.11377</ele>
        <time>2011-10-15T16:31:29Z</time>
      </trkpt>
      <trkpt lat="43.50464" lon="1.49361">
        <ele>189.997681</ele>
        <time>2011-10-15T16:31:37Z</time>
      </trkpt>
      <trkpt lat="43.50452" lon="1.49357">
        <ele>191.920288</ele>
        <time>2011-10-15T16:31:41Z</time>
      </trkpt>
      <trkpt lat="43.50425" lon="1.49349">
        <ele>194.804321</ele>
        <time>2011-10-15T16:31:49Z</time>
      </trkpt>
      <trkpt lat="43.50387" lon="1.49335">
        <ele>198.168945</ele>
        <time>2011-10-15T16:32:00Z</time>
      </trkpt>
      <trkpt lat="43.50336" lon="1.4929">
        <ele>201.533569</ele>
        <time>2011-10-15T16:32:17Z</time>
      </trkpt>
      <trkpt lat="43.50282" lon="1.49255">
        <ele>204.41748</ele>
        <time>2011-10-15T16:32:35Z</time>
      </trkpt>
      <trkpt lat="43.50248" lon="1.49243">
        <ele>207.782104</ele>
        <time>2011-10-15T16:32:46Z</time>
      </trkpt>
      <trkpt lat="43.50219" lon="1.49237">
        <ele>211.146729</ele>
        <time>2011-10-15T16:32:56Z</time>
      </trkpt>
      <trkpt lat="43.50188" lon="1.49241">
        <ele>214.03064</ele>
        <time>2011-10-15T16:33:07Z</time>
      </trkpt>
      <trkpt lat="43.50161" lon="1.49267">
        <ele>217.395386</ele>
        <time>2011-10-15T16:33:18Z</time>
      </trkpt>
      <trkpt lat="43.50139" lon="1.49294">
        <ele>220.759888</ele>
        <time>2011-10-15T16:33:29Z</time>
      </trkpt>
      <trkpt lat="43.50118" lon="1.49318">
        <ele>224.124512</ele>
        <time>2011-10-15T16:33:40Z</time>
      </trkpt>
      <trkpt lat="43.50105" lon="1.49335">
        <ele>227.008545</ele>
        <time>2011-10-15T16:33:48Z</time>
      </trkpt>
      <trkpt lat="43.50091" lon="1.49358">
        <ele>230.373047</ele>
        <time>2011-10-15T16:33:58Z</time>
      </trkpt>
      <trkpt lat="43.5009" lon="1.49361">
        <ele>230.373047</ele>
        <time>2011-10-15T16:33:59Z</time>
      </trkpt>
      <trkpt lat="43.5008" lon="1.49375">
        <ele>232.776489</ele>
        <time>2011-10-15T16:34:04Z</time>
      </trkpt>
      <trkpt lat="43.50055" lon="1.49407">
        <ele>236.140991</ele>
        <time>2011-10-15T16:34:18Z</time>
      </trkpt>
      <trkpt lat="43.50044" lon="1.49419">
        <ele>238.063599</ele>
        <time>2011-10-15T16:34:24Z</time>
      </trkpt>
      <trkpt lat="43.50009" lon="1.49459">
        <ele>240.947632</ele>
        <time>2011-10-15T16:34:41Z</time>
      </trkpt>
      <trkpt lat="43.49974" lon="1.49509">
        <ele>242.389648</ele>
        <time>2011-10-15T16:34:59Z</time>
      </trkpt>
      <trkpt lat="43.49937" lon="1.49558">
        <ele>245.75415</ele>
        <time>2011-10-15T16:35:16Z</time>
      </trkpt>
      <trkpt lat="43.49893" lon="1.49624">
        <ele>246.715454</ele>
        <time>2011-10-15T16:35:34Z</time>
      </trkpt>
      <trkpt lat="43.49847" lon="1.49689">
        <ele>245.75415</ele>
        <time>2011-10-15T16:35:49Z</time>
      </trkpt>
      <trkpt lat="43.49838" lon="1.49701">
        <ele>246.234863</ele>
        <time>2011-10-15T16:35:52Z</time>
      </trkpt>
      <trkpt lat="43.49826" lon="1.49715">
        <ele>245.75415</ele>
        <time>2011-10-15T16:35:56Z</time>
      </trkpt>
      <trkpt lat="43.49814" lon="1.49738">
        <ele>245.75415</ele>
        <time>2011-10-15T16:36:01Z</time>
      </trkpt>
      <trkpt lat="43.49803" lon="1.49749">
        <ele>245.273438</ele>
        <time>2011-10-15T16:36:04Z</time>
      </trkpt>
      <trkpt lat="43.49741" lon="1.49842">
        <ele>245.75415</ele>
        <time>2011-10-15T16:36:24Z</time>
      </trkpt>
      <trkpt lat="43.49697" lon="1.49915">
        <ele>247.196045</ele>
        <time>2011-10-15T16:36:40Z</time>
      </trkpt>
      <trkpt lat="43.49691" lon="1.49925">
        <ele>247.676758</ele>
        <time>2011-10-15T16:36:43Z</time>
      </trkpt>
      <trkpt lat="43.49698" lon="1.49943">
        <ele>244.792847</ele>
        <time>2011-10-15T16:36:47Z</time>
      </trkpt>
      <trkpt lat="43.4971" lon="1.49955">
        <ele>240.947632</ele>
        <time>2011-10-15T16:36:49Z</time>
      </trkpt>
      <trkpt lat="43.49722" lon="1.49972">
        <ele>238.544312</ele>
        <time>2011-10-15T16:36:51Z</time>
      </trkpt>
      <trkpt lat="43.49728" lon="1.49995">
        <ele>234.699097</ele>
        <time>2011-10-15T16:36:53Z</time>
      </trkpt>
      <trkpt lat="43.49733" lon="1.50022">
        <ele>231.334351</ele>
        <time>2011-10-15T16:36:55Z</time>
      </trkpt>
      <trkpt lat="43.49746" lon="1.50059">
        <ele>230.373047</ele>
        <time>2011-10-15T16:36:58Z</time>
      </trkpt>
      <trkpt lat="43.4975" lon="1.50069">
        <ele>229.892334</ele>
        <time>2011-10-15T16:36:59Z</time>
      </trkpt>
      <trkpt lat="43.49757" lon="1.50107">
        <ele>225.085938</ele>
        <time>2011-10-15T16:37:02Z</time>
      </trkpt>
      <trkpt lat="43.49758" lon="1.50122">
        <ele>224.605225</ele>
        <time>2011-10-15T16:37:03Z</time>
      </trkpt>
      <trkpt lat="43.4977" lon="1.50179">
        <ele>221.721191</ele>
        <time>2011-10-15T16:37:07Z</time>
      </trkpt>
      <trkpt lat="43.49793" lon="1.50214">
        <ele>225.566528</ele>
        <time>2011-10-15T16:37:11Z</time>
      </trkpt>
      <trkpt lat="43.49814" lon="1.50243">
        <ele>228.450439</ele>
        <time>2011-10-15T16:37:16Z</time>
      </trkpt>
      <trkpt lat="43.49823" lon="1.50256">
        <ele>229.892334</ele>
        <time>2011-10-15T16:37:19Z</time>
      </trkpt>
      <trkpt lat="43.49847" lon="1.50295">
        <ele>233.25708</ele>
        <time>2011-10-15T16:37:27Z</time>
      </trkpt>
      <trkpt lat="43.49888" lon="1.50341">
        <ele>236.621704</ele>
        <time>2011-10-15T16:37:39Z</time>
      </trkpt>
      <trkpt lat="43.49891" lon="1.50345">
        <ele>237.102295</ele>
        <time>2011-10-15T16:37:40Z</time>
      </trkpt>
      <trkpt lat="43.49917" lon="1.50373">
        <ele>239.505493</ele>
        <time>2011-10-15T16:37:48Z</time>
      </trkpt>
      <trkpt lat="43.49916" lon="1.50403">
        <ele>239.986206</ele>
        <time>2011-10-15T16:37:57Z</time>
      </trkpt>
      <trkpt lat="43.49881" lon="1.50439">
        <ele>240.947632</ele>
        <time>2011-10-15T16:38:08Z</time>
      </trkpt>
      <trkpt lat="43.49843" lon="1.50456">
        <ele>242.870239</ele>
        <time>2011-10-15T16:38:18Z</time>
      </trkpt>
      <trkpt lat="43.49809" lon="1.50513">
        <ele>244.312256</ele>
        <time>2011-10-15T16:38:32Z</time>
      </trkpt>
      <trkpt lat="43.49797" lon="1.50528">
        <ele>244.312256</ele>
        <time>2011-10-15T16:38:36Z</time>
      </trkpt>
      <trkpt lat="43.49788" lon="1.50548">
        <ele>243.831543</ele>
        <time>2011-10-15T16:38:40Z</time>
      </trkpt>
      <trkpt lat="43.49757" lon="1.50647">
        <ele>239.505493</ele>
        <time>2011-10-15T16:38:56Z</time>
      </trkpt>
      <trkpt lat="43.49755" lon="1.50654">
        <ele>239.505493</ele>
        <time>2011-10-15T16:38:57Z</time>
      </trkpt>
      <trkpt lat="43.49744" lon="1.5069">
        <ele>239.505493</ele>
        <time>2011-10-15T16:39:02Z</time>
      </trkpt>
      <trkpt lat="43.49741" lon="1.50731">
        <ele>238.544312</ele>
        <time>2011-10-15T16:39:09Z</time>
      </trkpt>
      <trkpt lat="43.49746" lon="1.50747">
        <ele>235.660278</ele>
        <time>2011-10-15T16:39:12Z</time>
      </trkpt>
      <trkpt lat="43.49753" lon="1.5076">
        <ele>235.179688</ele>
        <time>2011-10-15T16:39:14Z</time>
      </trkpt>
      <trkpt lat="43.49756" lon="1.5079">
        <ele>232.776489</ele>
        <time>2011-10-15T16:39:21Z</time>
      </trkpt>
      <trkpt lat="43.49751" lon="1.50798">
        <ele>232.776489</ele>
        <time>2011-10-15T16:39:31Z</time>
      </trkpt>
      <trkpt lat="43.49742" lon="1.50812">
        <ele>227.969727</ele>
        <time>2011-10-15T16:40:24Z</time>
      </trkpt>
      <trkpt lat="43.49734" lon="1.50828">
        <ele>223.163208</ele>
        <time>2011-10-15T16:40:26Z</time>
      </trkpt>
      <trkpt lat="43.49722" lon="1.5085">
        <ele>218.356567</ele>
        <time>2011-10-15T16:40:28Z</time>
      </trkpt>
      <trkpt lat="43.49716" lon="1.50862">
        <ele>214.991943</ele>
        <time>2011-10-15T16:40:29Z</time>
      </trkpt>
      <trkpt lat="43.49711" lon="1.50873">
        <ele>212.108032</ele>
        <time>2011-10-15T16:40:30Z</time>
      </trkpt>
      <trkpt lat="43.49706" lon="1.50884">
        <ele>210.666016</ele>
        <time>2011-10-15T16:40:31Z</time>
      </trkpt>
      <trkpt lat="43.49699" lon="1.50917">
        <ele>202.014282</ele>
        <time>2011-10-15T16:40:34Z</time>
      </trkpt>
      <trkpt lat="43.49695" lon="1.50944">
        <ele>198.649536</ele>
        <time>2011-10-15T16:40:36Z</time>
      </trkpt>
      <trkpt lat="43.49691" lon="1.50964">
        <ele>196.726929</ele>
        <time>2011-10-15T16:40:38Z</time>
      </trkpt>
      <trkpt lat="43.49685" lon="1.50983">
        <ele>194.804321</ele>
        <time>2011-10-15T16:40:44Z</time>
      </trkpt>
      <trkpt lat="43.49691" lon="1.50984">
        <ele>194.32373</ele>
        <time>2011-10-15T16:40:46Z</time>
      </trkpt>
      <trkpt lat="43.49712" lon="1.50981">
        <ele>194.804321</ele>
        <time>2011-10-15T16:40:51Z</time>
      </trkpt>
      <trkpt lat="43.4973" lon="1.50978">
        <ele>195.284912</ele>
        <time>2011-10-15T16:40:55Z</time>
      </trkpt>
      <trkpt lat="43.49788" lon="1.50979">
        <ele>197.688232</ele>
        <time>2011-10-15T16:41:05Z</time>
      </trkpt>
      <trkpt lat="43.49818" lon="1.50961">
        <ele>200.572266</ele>
        <time>2011-10-15T16:41:12Z</time>
      </trkpt>
      <trkpt lat="43.49821" lon="1.50957">
        <ele>201.052856</ele>
        <time>2011-10-15T16:41:13Z</time>
      </trkpt>
      <trkpt lat="43.49837" lon="1.50921">
        <ele>204.41748</ele>
        <time>2011-10-15T16:41:22Z</time>
      </trkpt>
      <trkpt lat="43.49862" lon="1.50864">
        <ele>207.301392</ele>
        <time>2011-10-15T16:41:37Z</time>
      </trkpt>
      <trkpt lat="43.49869" lon="1.50853">
        <ele>207.782104</ele>
        <time>2011-10-15T16:41:40Z</time>
      </trkpt>
      <trkpt lat="43.49883" lon="1.50853">
        <ele>205.859497</ele>
        <time>2011-10-15T16:41:44Z</time>
      </trkpt>
      <trkpt lat="43.49946" lon="1.50881">
        <ele>205.859497</ele>
        <time>2011-10-15T16:41:56Z</time>
      </trkpt>
      <trkpt lat="43.49955" lon="1.50891">
        <ele>207.301392</ele>
        <time>2011-10-15T16:42:00Z</time>
      </trkpt>
      <trkpt lat="43.49954" lon="1.50894">
        <ele>207.301392</ele>
        <time>2011-10-15T16:42:01Z</time>
      </trkpt>
      <trkpt lat="43.49952" lon="1.509">
        <ele>206.340088</ele>
        <time>2011-10-15T16:42:03Z</time>
      </trkpt>
      <trkpt lat="43.49934" lon="1.50918">
        <ele>201.533569</ele>
        <time>2011-10-15T16:42:07Z</time>
      </trkpt>
      <trkpt lat="43.49918" lon="1.50927">
        <ele>198.649536</ele>
        <time>2011-10-15T16:42:09Z</time>
      </trkpt>
      <trkpt lat="43.49893" lon="1.50954">
        <ele>192.881714</ele>
        <time>2011-10-15T16:42:12Z</time>
      </trkpt>
      <trkpt lat="43.4987" lon="1.50997">
        <ele>189.516968</ele>
        <time>2011-10-15T16:42:16Z</time>
      </trkpt>
      <trkpt lat="43.49865" lon="1.51008">
        <ele>188.555786</ele>
        <time>2011-10-15T16:42:17Z</time>
      </trkpt>
      <trkpt lat="43.49845" lon="1.51032">
        <ele>181.826416</ele>
        <time>2011-10-15T16:42:20Z</time>
      </trkpt>
      <trkpt lat="43.49836" lon="1.51042">
        <ele>180.865234</ele>
        <time>2011-10-15T16:42:21Z</time>
      </trkpt>
      <trkpt lat="43.49825" lon="1.51088">
        <ele>177.50061</ele>
        <time>2011-10-15T16:42:25Z</time>
      </trkpt>
      <trkpt lat="43.49835" lon="1.51122">
        <ele>176.058594</ele>
        <time>2011-10-15T16:42:28Z</time>
      </trkpt>
      <trkpt lat="43.49853" lon="1.5118">
        <ele>173.655273</ele>
        <time>2011-10-15T16:42:33Z</time>
      </trkpt>
      <trkpt lat="43.49876" lon="1.51248">
        <ele>171.252075</ele>
        <time>2011-10-15T16:42:39Z</time>
      </trkpt>
      <trkpt lat="43.49913" lon="1.5131">
        <ele>169.329468</ele>
        <time>2011-10-15T16:42:46Z</time>
      </trkpt>
      <trkpt lat="43.49956" lon="1.51354">
        <ele>165.003418</ele>
        <time>2011-10-15T16:42:52Z</time>
      </trkpt>
      <trkpt lat="43.49993" lon="1.51386">
        <ele>163.561523</ele>
        <time>2011-10-15T16:42:59Z</time>
      </trkpt>
      <trkpt lat="43.49995" lon="1.51388">
        <ele>164.042114</ele>
        <time>2011-10-15T16:43:01Z</time>
      </trkpt>
      <trkpt lat="43.49994" lon="1.51376">
        <ele>164.042114</ele>
        <time>2011-10-15T16:43:12Z</time>
      </trkpt>
      <trkpt lat="43.49996" lon="1.51354">
        <ele>165.003418</ele>
        <time>2011-10-15T16:43:22Z</time>
      </trkpt>
      <trkpt lat="43.49999" lon="1.51304">
        <ele>166.445313</ele>
        <time>2011-10-15T16:43:34Z</time>
      </trkpt>
      <trkpt lat="43.5" lon="1.5125">
        <ele>169.810059</ele>
        <time>2011-10-15T16:43:46Z</time>
      </trkpt>
      <trkpt lat="43.50004" lon="1.51225">
        <ele>171.732666</ele>
        <time>2011-10-15T16:43:52Z</time>
      </trkpt>
      <trkpt lat="43.50015" lon="1.5121">
        <ele>173.655273</ele>
        <time>2011-10-15T16:43:58Z</time>
      </trkpt>
      <trkpt lat="43.50012" lon="1.5118">
        <ele>176.539307</ele>
        <time>2011-10-15T16:44:06Z</time>
      </trkpt>
      <trkpt lat="43.50015" lon="1.51148">
        <ele>180.384521</ele>
        <time>2011-10-15T16:44:14Z</time>
      </trkpt>
      <trkpt lat="43.50015" lon="1.51144">
        <ele>180.384521</ele>
        <time>2011-10-15T16:44:15Z</time>
      </trkpt>
      <trkpt lat="43.50017" lon="1.51116">
        <ele>183.749023</ele>
        <time>2011-10-15T16:44:24Z</time>
      </trkpt>
      <trkpt lat="43.50019" lon="1.51106">
        <ele>184.710571</ele>
        <time>2011-10-15T16:44:27Z</time>
      </trkpt>
      <trkpt lat="43.50024" lon="1.51095">
        <ele>186.152466</ele>
        <time>2011-10-15T16:44:31Z</time>
      </trkpt>
      <trkpt lat="43.50027" lon="1.51067">
        <ele>189.036377</ele>
        <time>2011-10-15T16:44:39Z</time>
      </trkpt>
      <trkpt lat="43.50028" lon="1.5103">
        <ele>192.401123</ele>
        <time>2011-10-15T16:44:51Z</time>
      </trkpt>
      <trkpt lat="43.50037" lon="1.50989">
        <ele>195.765625</ele>
        <time>2011-10-15T16:45:03Z</time>
      </trkpt>
      <trkpt lat="43.5004" lon="1.50982">
        <ele>196.726929</ele>
        <time>2011-10-15T16:45:06Z</time>
      </trkpt>
      <trkpt lat="43.50057" lon="1.50957">
        <ele>200.091675</ele>
        <time>2011-10-15T16:45:17Z</time>
      </trkpt>
      <trkpt lat="43.50066" lon="1.50937">
        <ele>202.494873</ele>
        <time>2011-10-15T16:45:23Z</time>
      </trkpt>
      <trkpt lat="43.50071" lon="1.50922">
        <ele>204.41748</ele>
        <time>2011-10-15T16:45:28Z</time>
      </trkpt>
      <trkpt lat="43.50052" lon="1.50882">
        <ele>206.820679</ele>
        <time>2011-10-15T16:45:43Z</time>
      </trkpt>
      <trkpt lat="43.50047" lon="1.50843">
        <ele>209.704834</ele>
        <time>2011-10-15T16:45:56Z</time>
      </trkpt>
      <trkpt lat="43.50047" lon="1.50837">
        <ele>210.185425</ele>
        <time>2011-10-15T16:45:58Z</time>
      </trkpt>
    </trkseg>
  </trk>
</gpx>